<?xml version="1.0" encoding="UTF-8" standalone="no" ?>
<gpx xmlns="http://www.topografix.com/GPX/1/1" xmlns:xsi="http://www.w3.org/2001/XMLSchema-instance" xsi:schemaLocation="http://www.topografix.com/GPX/1/1 http://www.topografix.com/GPX/1/1/gpx.xsd" version="1.1" creator="VisuGPX - https://www.visugpx.com">
  <metadata>
    <name>Traversée du GEP</name>
    <desc><![CDATA[Rejoindre le col de Eissadon et effectuer la traversée jusqu'à la calanque de l'Oule]]></desc>
  </metadata>
  <trk>
    <name><![CDATA[16 oct. 2016 à 08:28:09]]></name>
    <cmt><![CDATA[16 oct. 2016 à 08:28:09]]></cmt>
    <trkseg>
      <trkpt lat="43.22741" lon="5.5037">
        <ele>244</ele>
        <time>2016-10-16T06:28:10Z</time>
      </trkpt>
      <trkpt lat="43.22739" lon="5.50374">
        <ele>251</ele>
        <time>2016-10-16T06:28:31Z</time>
      </trkpt>
      <trkpt lat="43.22739" lon="5.50377">
        <ele>253</ele>
        <time>2016-10-16T06:29:05Z</time>
      </trkpt>
      <trkpt lat="43.22738" lon="5.5038">
        <ele>256</ele>
        <time>2016-10-16T06:31:26Z</time>
      </trkpt>
      <trkpt lat="43.22733" lon="5.50382">
        <ele>256</ele>
        <time>2016-10-16T06:32:52Z</time>
      </trkpt>
      <trkpt lat="43.22728" lon="5.50384">
        <ele>256</ele>
        <time>2016-10-16T06:32:57Z</time>
      </trkpt>
      <trkpt lat="43.2271" lon="5.50392">
        <ele>256</ele>
        <time>2016-10-16T06:33:14Z</time>
      </trkpt>
      <trkpt lat="43.22702" lon="5.50384">
        <ele>255</ele>
        <time>2016-10-16T06:33:25Z</time>
      </trkpt>
      <trkpt lat="43.22687" lon="5.50352">
        <ele>254</ele>
        <time>2016-10-16T06:33:55Z</time>
      </trkpt>
      <trkpt lat="43.22659" lon="5.50312">
        <ele>252</ele>
        <time>2016-10-16T06:34:30Z</time>
      </trkpt>
      <trkpt lat="43.22629" lon="5.50276">
        <ele>250</ele>
        <time>2016-10-16T06:35:03Z</time>
      </trkpt>
      <trkpt lat="43.22589" lon="5.50275">
        <ele>247</ele>
        <time>2016-10-16T06:35:35Z</time>
      </trkpt>
      <trkpt lat="43.22547" lon="5.50273">
        <ele>245</ele>
        <time>2016-10-16T06:36:08Z</time>
      </trkpt>
      <trkpt lat="43.22526" lon="5.50271">
        <ele>244</ele>
        <time>2016-10-16T06:36:24Z</time>
      </trkpt>
      <trkpt lat="43.22523" lon="5.50267">
        <ele>244</ele>
        <time>2016-10-16T06:36:28Z</time>
      </trkpt>
      <trkpt lat="43.22486" lon="5.50245">
        <ele>244</ele>
        <time>2016-10-16T06:37:01Z</time>
      </trkpt>
      <trkpt lat="43.22463" lon="5.5023">
        <ele>243</ele>
        <time>2016-10-16T06:37:21Z</time>
      </trkpt>
      <trkpt lat="43.2243" lon="5.50208">
        <ele>238</ele>
        <time>2016-10-16T06:37:52Z</time>
      </trkpt>
      <trkpt lat="43.2241" lon="5.5019">
        <ele>235</ele>
        <time>2016-10-16T06:38:14Z</time>
      </trkpt>
      <trkpt lat="43.22408" lon="5.50184">
        <ele>234</ele>
        <time>2016-10-16T06:38:18Z</time>
      </trkpt>
      <trkpt lat="43.22396" lon="5.50163">
        <ele>233</ele>
        <time>2016-10-16T06:38:34Z</time>
      </trkpt>
      <trkpt lat="43.22358" lon="5.5016">
        <ele>230</ele>
        <time>2016-10-16T06:39:01Z</time>
      </trkpt>
      <trkpt lat="43.22317" lon="5.50175">
        <ele>227</ele>
        <time>2016-10-16T06:39:33Z</time>
      </trkpt>
      <trkpt lat="43.22281" lon="5.50185">
        <ele>223</ele>
        <time>2016-10-16T06:40:04Z</time>
      </trkpt>
      <trkpt lat="43.22266" lon="5.50189">
        <ele>222</ele>
        <time>2016-10-16T06:40:16Z</time>
      </trkpt>
      <trkpt lat="43.22261" lon="5.50187">
        <ele>221</ele>
        <time>2016-10-16T06:40:20Z</time>
      </trkpt>
      <trkpt lat="43.22252" lon="5.50169">
        <ele>221</ele>
        <time>2016-10-16T06:40:32Z</time>
      </trkpt>
      <trkpt lat="43.22227" lon="5.50124">
        <ele>222</ele>
        <time>2016-10-16T06:41:04Z</time>
      </trkpt>
      <trkpt lat="43.22215" lon="5.50109">
        <ele>222</ele>
        <time>2016-10-16T06:41:16Z</time>
      </trkpt>
      <trkpt lat="43.22174" lon="5.50105">
        <ele>216</ele>
        <time>2016-10-16T06:41:48Z</time>
      </trkpt>
      <trkpt lat="43.22145" lon="5.50111">
        <ele>211</ele>
        <time>2016-10-16T06:42:12Z</time>
      </trkpt>
      <trkpt lat="43.22141" lon="5.50107">
        <ele>210</ele>
        <time>2016-10-16T06:42:17Z</time>
      </trkpt>
      <trkpt lat="43.22137" lon="5.50093">
        <ele>209</ele>
        <time>2016-10-16T06:42:25Z</time>
      </trkpt>
      <trkpt lat="43.2213" lon="5.50037">
        <ele>206</ele>
        <time>2016-10-16T06:42:55Z</time>
      </trkpt>
      <trkpt lat="43.22123" lon="5.49979">
        <ele>204</ele>
        <time>2016-10-16T06:43:25Z</time>
      </trkpt>
      <trkpt lat="43.22125" lon="5.49931">
        <ele>201</ele>
        <time>2016-10-16T06:43:52Z</time>
      </trkpt>
      <trkpt lat="43.22128" lon="5.49927">
        <ele>201</ele>
        <time>2016-10-16T06:43:56Z</time>
      </trkpt>
      <trkpt lat="43.22135" lon="5.49916">
        <ele>200</ele>
        <time>2016-10-16T06:44:04Z</time>
      </trkpt>
      <trkpt lat="43.22136" lon="5.499">
        <ele>200</ele>
        <time>2016-10-16T06:44:11Z</time>
      </trkpt>
      <trkpt lat="43.22135" lon="5.49893">
        <ele>200</ele>
        <time>2016-10-16T06:44:16Z</time>
      </trkpt>
      <trkpt lat="43.22135" lon="5.49866">
        <ele>202</ele>
        <time>2016-10-16T06:44:32Z</time>
      </trkpt>
      <trkpt lat="43.22131" lon="5.49863">
        <ele>202</ele>
        <time>2016-10-16T06:44:36Z</time>
      </trkpt>
      <trkpt lat="43.22126" lon="5.49864">
        <ele>203</ele>
        <time>2016-10-16T06:44:40Z</time>
      </trkpt>
      <trkpt lat="43.22104" lon="5.49874">
        <ele>205</ele>
        <time>2016-10-16T06:45:01Z</time>
      </trkpt>
      <trkpt lat="43.22063" lon="5.49879">
        <ele>204</ele>
        <time>2016-10-16T06:45:33Z</time>
      </trkpt>
      <trkpt lat="43.22022" lon="5.49901">
        <ele>203</ele>
        <time>2016-10-16T06:46:05Z</time>
      </trkpt>
      <trkpt lat="43.21978" lon="5.49913">
        <ele>201</ele>
        <time>2016-10-16T06:46:37Z</time>
      </trkpt>
      <trkpt lat="43.21941" lon="5.49889">
        <ele>199</ele>
        <time>2016-10-16T06:47:10Z</time>
      </trkpt>
      <trkpt lat="43.21906" lon="5.49854">
        <ele>198</ele>
        <time>2016-10-16T06:47:41Z</time>
      </trkpt>
      <trkpt lat="43.21881" lon="5.49816">
        <ele>197</ele>
        <time>2016-10-16T06:48:09Z</time>
      </trkpt>
      <trkpt lat="43.21891" lon="5.49778">
        <ele>195</ele>
        <time>2016-10-16T06:48:33Z</time>
      </trkpt>
      <trkpt lat="43.21903" lon="5.49744">
        <ele>195</ele>
        <time>2016-10-16T06:48:53Z</time>
      </trkpt>
      <trkpt lat="43.21901" lon="5.49736">
        <ele>194</ele>
        <time>2016-10-16T06:48:57Z</time>
      </trkpt>
      <trkpt lat="43.21897" lon="5.49732">
        <ele>194</ele>
        <time>2016-10-16T06:49:02Z</time>
      </trkpt>
      <trkpt lat="43.21855" lon="5.49733">
        <ele>189</ele>
        <time>2016-10-16T06:49:34Z</time>
      </trkpt>
      <trkpt lat="43.21812" lon="5.49739">
        <ele>185</ele>
        <time>2016-10-16T06:50:05Z</time>
      </trkpt>
      <trkpt lat="43.21798" lon="5.49744">
        <ele>184</ele>
        <time>2016-10-16T06:50:19Z</time>
      </trkpt>
      <trkpt lat="43.21794" lon="5.49745">
        <ele>184</ele>
        <time>2016-10-16T06:50:25Z</time>
      </trkpt>
      <trkpt lat="43.21767" lon="5.49727">
        <ele>178</ele>
        <time>2016-10-16T06:51:00Z</time>
      </trkpt>
      <trkpt lat="43.21762" lon="5.49726">
        <ele>176</ele>
        <time>2016-10-16T06:51:04Z</time>
      </trkpt>
      <trkpt lat="43.21758" lon="5.49726">
        <ele>176</ele>
        <time>2016-10-16T06:51:09Z</time>
      </trkpt>
      <trkpt lat="43.21725" lon="5.49706">
        <ele>174</ele>
        <time>2016-10-16T06:51:39Z</time>
      </trkpt>
      <trkpt lat="43.21704" lon="5.49667">
        <ele>173</ele>
        <time>2016-10-16T06:52:10Z</time>
      </trkpt>
      <trkpt lat="43.21695" lon="5.49644">
        <ele>171</ele>
        <time>2016-10-16T06:52:30Z</time>
      </trkpt>
      <trkpt lat="43.21682" lon="5.49601">
        <ele>163</ele>
        <time>2016-10-16T06:53:02Z</time>
      </trkpt>
      <trkpt lat="43.21671" lon="5.4957">
        <ele>162</ele>
        <time>2016-10-16T06:53:24Z</time>
      </trkpt>
      <trkpt lat="43.21657" lon="5.49534">
        <ele>158</ele>
        <time>2016-10-16T06:53:55Z</time>
      </trkpt>
      <trkpt lat="43.21637" lon="5.4949">
        <ele>152</ele>
        <time>2016-10-16T06:54:26Z</time>
      </trkpt>
      <trkpt lat="43.21631" lon="5.49472">
        <ele>147</ele>
        <time>2016-10-16T06:54:42Z</time>
      </trkpt>
      <trkpt lat="43.21623" lon="5.49466">
        <ele>146</ele>
        <time>2016-10-16T06:54:52Z</time>
      </trkpt>
      <trkpt lat="43.21614" lon="5.49465">
        <ele>143</ele>
        <time>2016-10-16T06:55:04Z</time>
      </trkpt>
      <trkpt lat="43.21611" lon="5.49464">
        <ele>142</ele>
        <time>2016-10-16T06:55:10Z</time>
      </trkpt>
      <trkpt lat="43.21604" lon="5.49454">
        <ele>139</ele>
        <time>2016-10-16T06:55:26Z</time>
      </trkpt>
      <trkpt lat="43.21599" lon="5.49456">
        <ele>138</ele>
        <time>2016-10-16T06:55:32Z</time>
      </trkpt>
      <trkpt lat="43.21597" lon="5.49458">
        <ele>136</ele>
        <time>2016-10-16T06:55:43Z</time>
      </trkpt>
      <trkpt lat="43.21598" lon="5.4946">
        <ele>135</ele>
        <time>2016-10-16T06:56:53Z</time>
      </trkpt>
      <trkpt lat="43.21588" lon="5.49451">
        <ele>135</ele>
        <time>2016-10-16T06:57:31Z</time>
      </trkpt>
      <trkpt lat="43.21556" lon="5.4942">
        <ele>131</ele>
        <time>2016-10-16T06:58:03Z</time>
      </trkpt>
      <trkpt lat="43.21519" lon="5.49411">
        <ele>127</ele>
        <time>2016-10-16T06:58:33Z</time>
      </trkpt>
      <trkpt lat="43.21491" lon="5.49428">
        <ele>124</ele>
        <time>2016-10-16T06:58:57Z</time>
      </trkpt>
      <trkpt lat="43.21487" lon="5.49415">
        <ele>124</ele>
        <time>2016-10-16T06:59:09Z</time>
      </trkpt>
      <trkpt lat="43.21478" lon="5.49399">
        <ele>126</ele>
        <time>2016-10-16T06:59:29Z</time>
      </trkpt>
      <trkpt lat="43.2148" lon="5.49393">
        <ele>127</ele>
        <time>2016-10-16T06:59:38Z</time>
      </trkpt>
      <trkpt lat="43.21476" lon="5.49392">
        <ele>128</ele>
        <time>2016-10-16T06:59:48Z</time>
      </trkpt>
      <trkpt lat="43.21468" lon="5.49386">
        <ele>134</ele>
        <time>2016-10-16T07:00:20Z</time>
      </trkpt>
      <trkpt lat="43.21466" lon="5.49383">
        <ele>136</ele>
        <time>2016-10-16T07:00:31Z</time>
      </trkpt>
      <trkpt lat="43.21464" lon="5.49374">
        <ele>139</ele>
        <time>2016-10-16T07:00:47Z</time>
      </trkpt>
      <trkpt lat="43.21462" lon="5.49355">
        <ele>144</ele>
        <time>2016-10-16T07:01:17Z</time>
      </trkpt>
      <trkpt lat="43.21463" lon="5.49341">
        <ele>149</ele>
        <time>2016-10-16T07:01:43Z</time>
      </trkpt>
      <trkpt lat="43.21457" lon="5.49342">
        <ele>151</ele>
        <time>2016-10-16T07:01:55Z</time>
      </trkpt>
      <trkpt lat="43.21452" lon="5.49334">
        <ele>155</ele>
        <time>2016-10-16T07:02:29Z</time>
      </trkpt>
      <trkpt lat="43.21448" lon="5.49341">
        <ele>156</ele>
        <time>2016-10-16T07:02:43Z</time>
      </trkpt>
      <trkpt lat="43.21445" lon="5.49346">
        <ele>158</ele>
        <time>2016-10-16T07:02:49Z</time>
      </trkpt>
      <trkpt lat="43.2144" lon="5.49347">
        <ele>160</ele>
        <time>2016-10-16T07:02:58Z</time>
      </trkpt>
      <trkpt lat="43.21431" lon="5.49354">
        <ele>164</ele>
        <time>2016-10-16T07:03:22Z</time>
      </trkpt>
      <trkpt lat="43.21424" lon="5.49362">
        <ele>162</ele>
        <time>2016-10-16T07:03:36Z</time>
      </trkpt>
      <trkpt lat="43.2142" lon="5.49365">
        <ele>163</ele>
        <time>2016-10-16T07:03:44Z</time>
      </trkpt>
      <trkpt lat="43.21418" lon="5.49359">
        <ele>163</ele>
        <time>2016-10-16T07:03:51Z</time>
      </trkpt>
      <trkpt lat="43.21418" lon="5.49356">
        <ele>164</ele>
        <time>2016-10-16T07:03:57Z</time>
      </trkpt>
      <trkpt lat="43.21413" lon="5.49362">
        <ele>167</ele>
        <time>2016-10-16T07:04:11Z</time>
      </trkpt>
      <trkpt lat="43.21387" lon="5.4938">
        <ele>173</ele>
        <time>2016-10-16T07:04:46Z</time>
      </trkpt>
      <trkpt lat="43.21362" lon="5.49399">
        <ele>176</ele>
        <time>2016-10-16T07:05:16Z</time>
      </trkpt>
      <trkpt lat="43.21357" lon="5.494">
        <ele>177</ele>
        <time>2016-10-16T07:05:22Z</time>
      </trkpt>
      <trkpt lat="43.21326" lon="5.49399">
        <ele>177</ele>
        <time>2016-10-16T07:05:50Z</time>
      </trkpt>
      <trkpt lat="43.21316" lon="5.494">
        <ele>176</ele>
        <time>2016-10-16T07:06:00Z</time>
      </trkpt>
      <trkpt lat="43.21282" lon="5.49392">
        <ele>175</ele>
        <time>2016-10-16T07:06:30Z</time>
      </trkpt>
      <trkpt lat="43.21269" lon="5.4938">
        <ele>175</ele>
        <time>2016-10-16T07:06:42Z</time>
      </trkpt>
      <trkpt lat="43.21243" lon="5.49346">
        <ele>176</ele>
        <time>2016-10-16T07:07:14Z</time>
      </trkpt>
      <trkpt lat="43.21217" lon="5.49311">
        <ele>177</ele>
        <time>2016-10-16T07:07:47Z</time>
      </trkpt>
      <trkpt lat="43.21193" lon="5.4927">
        <ele>178</ele>
        <time>2016-10-16T07:08:20Z</time>
      </trkpt>
      <trkpt lat="43.21169" lon="5.49224">
        <ele>177</ele>
        <time>2016-10-16T07:08:53Z</time>
      </trkpt>
      <trkpt lat="43.21168" lon="5.49169">
        <ele>175</ele>
        <time>2016-10-16T07:09:25Z</time>
      </trkpt>
      <trkpt lat="43.21179" lon="5.49116">
        <ele>174</ele>
        <time>2016-10-16T07:09:58Z</time>
      </trkpt>
      <trkpt lat="43.21187" lon="5.49069">
        <ele>174</ele>
        <time>2016-10-16T07:10:28Z</time>
      </trkpt>
      <trkpt lat="43.212" lon="5.49033">
        <ele>173</ele>
        <time>2016-10-16T07:10:52Z</time>
      </trkpt>
      <trkpt lat="43.21197" lon="5.49026">
        <ele>173</ele>
        <time>2016-10-16T07:10:57Z</time>
      </trkpt>
      <trkpt lat="43.21193" lon="5.49023">
        <ele>172</ele>
        <time>2016-10-16T07:11:02Z</time>
      </trkpt>
      <trkpt lat="43.21187" lon="5.49025">
        <ele>172</ele>
        <time>2016-10-16T07:11:07Z</time>
      </trkpt>
      <trkpt lat="43.21158" lon="5.4904">
        <ele>171</ele>
        <time>2016-10-16T07:11:32Z</time>
      </trkpt>
      <trkpt lat="43.21121" lon="5.49059">
        <ele>174</ele>
        <time>2016-10-16T07:12:06Z</time>
      </trkpt>
      <trkpt lat="43.21085" lon="5.49077">
        <ele>174</ele>
        <time>2016-10-16T07:12:40Z</time>
      </trkpt>
      <trkpt lat="43.21047" lon="5.49098">
        <ele>174</ele>
        <time>2016-10-16T07:13:14Z</time>
      </trkpt>
      <trkpt lat="43.21014" lon="5.49125">
        <ele>173</ele>
        <time>2016-10-16T07:13:48Z</time>
      </trkpt>
      <trkpt lat="43.2101" lon="5.49121">
        <ele>173</ele>
        <time>2016-10-16T07:13:53Z</time>
      </trkpt>
      <trkpt lat="43.21007" lon="5.49117">
        <ele>172</ele>
        <time>2016-10-16T07:13:59Z</time>
      </trkpt>
      <trkpt lat="43.21008" lon="5.4911">
        <ele>171</ele>
        <time>2016-10-16T07:14:04Z</time>
      </trkpt>
      <trkpt lat="43.21019" lon="5.49065">
        <ele>169</ele>
        <time>2016-10-16T07:14:35Z</time>
      </trkpt>
      <trkpt lat="43.21033" lon="5.49013">
        <ele>166</ele>
        <time>2016-10-16T07:15:07Z</time>
      </trkpt>
      <trkpt lat="43.21057" lon="5.48969">
        <ele>163</ele>
        <time>2016-10-16T07:15:40Z</time>
      </trkpt>
      <trkpt lat="43.21066" lon="5.48945">
        <ele>162</ele>
        <time>2016-10-16T07:15:55Z</time>
      </trkpt>
      <trkpt lat="43.2107" lon="5.48939">
        <ele>162</ele>
        <time>2016-10-16T07:16:00Z</time>
      </trkpt>
      <trkpt lat="43.21072" lon="5.48926">
        <ele>162</ele>
        <time>2016-10-16T07:16:09Z</time>
      </trkpt>
      <trkpt lat="43.21073" lon="5.48897">
        <ele>161</ele>
        <time>2016-10-16T07:16:25Z</time>
      </trkpt>
      <trkpt lat="43.21068" lon="5.48887">
        <ele>160</ele>
        <time>2016-10-16T07:16:34Z</time>
      </trkpt>
      <trkpt lat="43.21063" lon="5.48886">
        <ele>158</ele>
        <time>2016-10-16T07:16:38Z</time>
      </trkpt>
      <trkpt lat="43.21058" lon="5.48887">
        <ele>158</ele>
        <time>2016-10-16T07:16:41Z</time>
      </trkpt>
      <trkpt lat="43.21054" lon="5.48884">
        <ele>156</ele>
        <time>2016-10-16T07:16:45Z</time>
      </trkpt>
      <trkpt lat="43.21047" lon="5.48874">
        <ele>154</ele>
        <time>2016-10-16T07:16:53Z</time>
      </trkpt>
      <trkpt lat="43.21047" lon="5.48867">
        <ele>154</ele>
        <time>2016-10-16T07:16:57Z</time>
      </trkpt>
      <trkpt lat="43.21052" lon="5.48845">
        <ele>152</ele>
        <time>2016-10-16T07:17:09Z</time>
      </trkpt>
      <trkpt lat="43.21082" lon="5.48812">
        <ele>146</ele>
        <time>2016-10-16T07:17:42Z</time>
      </trkpt>
      <trkpt lat="43.21103" lon="5.48796">
        <ele>145</ele>
        <time>2016-10-16T07:18:02Z</time>
      </trkpt>
      <trkpt lat="43.21105" lon="5.4879">
        <ele>145</ele>
        <time>2016-10-16T07:18:06Z</time>
      </trkpt>
      <trkpt lat="43.21104" lon="5.48783">
        <ele>144</ele>
        <time>2016-10-16T07:18:11Z</time>
      </trkpt>
      <trkpt lat="43.21099" lon="5.4878">
        <ele>144</ele>
        <time>2016-10-16T07:18:16Z</time>
      </trkpt>
      <trkpt lat="43.21095" lon="5.4878">
        <ele>143</ele>
        <time>2016-10-16T07:18:20Z</time>
      </trkpt>
      <trkpt lat="43.21057" lon="5.48797">
        <ele>139</ele>
        <time>2016-10-16T07:18:55Z</time>
      </trkpt>
      <trkpt lat="43.21043" lon="5.48806">
        <ele>138</ele>
        <time>2016-10-16T07:19:08Z</time>
      </trkpt>
      <trkpt lat="43.2104" lon="5.48808">
        <ele>138</ele>
        <time>2016-10-16T07:19:44Z</time>
      </trkpt>
      <trkpt lat="43.21017" lon="5.48852">
        <ele>136</ele>
        <time>2016-10-16T07:20:17Z</time>
      </trkpt>
      <trkpt lat="43.21003" lon="5.48881">
        <ele>134</ele>
        <time>2016-10-16T07:20:40Z</time>
      </trkpt>
      <trkpt lat="43.21004" lon="5.48889">
        <ele>134</ele>
        <time>2016-10-16T07:20:44Z</time>
      </trkpt>
      <trkpt lat="43.2102" lon="5.48925">
        <ele>132</ele>
        <time>2016-10-16T07:21:11Z</time>
      </trkpt>
      <trkpt lat="43.21018" lon="5.48931">
        <ele>131</ele>
        <time>2016-10-16T07:21:15Z</time>
      </trkpt>
      <trkpt lat="43.21011" lon="5.48942">
        <ele>130</ele>
        <time>2016-10-16T07:21:24Z</time>
      </trkpt>
      <trkpt lat="43.21006" lon="5.48943">
        <ele>130</ele>
        <time>2016-10-16T07:21:28Z</time>
      </trkpt>
      <trkpt lat="43.20991" lon="5.48937">
        <ele>128</ele>
        <time>2016-10-16T07:21:44Z</time>
      </trkpt>
      <trkpt lat="43.20983" lon="5.48929">
        <ele>126</ele>
        <time>2016-10-16T07:21:57Z</time>
      </trkpt>
      <trkpt lat="43.20966" lon="5.48934">
        <ele>125</ele>
        <time>2016-10-16T07:22:08Z</time>
      </trkpt>
      <trkpt lat="43.20959" lon="5.48939">
        <ele>124</ele>
        <time>2016-10-16T07:22:13Z</time>
      </trkpt>
      <trkpt lat="43.20949" lon="5.48965">
        <ele>122</ele>
        <time>2016-10-16T07:22:29Z</time>
      </trkpt>
      <trkpt lat="43.20946" lon="5.48986">
        <ele>120</ele>
        <time>2016-10-16T07:22:43Z</time>
      </trkpt>
      <trkpt lat="43.20937" lon="5.49011">
        <ele>120</ele>
        <time>2016-10-16T07:23:00Z</time>
      </trkpt>
      <trkpt lat="43.20929" lon="5.49019">
        <ele>120</ele>
        <time>2016-10-16T07:23:10Z</time>
      </trkpt>
      <trkpt lat="43.20909" lon="5.49016">
        <ele>118</ele>
        <time>2016-10-16T07:23:28Z</time>
      </trkpt>
      <trkpt lat="43.20892" lon="5.49005">
        <ele>117</ele>
        <time>2016-10-16T07:23:43Z</time>
      </trkpt>
      <trkpt lat="43.20888" lon="5.4901">
        <ele>115</ele>
        <time>2016-10-16T07:23:50Z</time>
      </trkpt>
      <trkpt lat="43.20888" lon="5.49016">
        <ele>115</ele>
        <time>2016-10-16T07:23:53Z</time>
      </trkpt>
      <trkpt lat="43.20893" lon="5.49037">
        <ele>113</ele>
        <time>2016-10-16T07:24:06Z</time>
      </trkpt>
      <trkpt lat="43.20897" lon="5.49042">
        <ele>113</ele>
        <time>2016-10-16T07:24:10Z</time>
      </trkpt>
      <trkpt lat="43.20896" lon="5.4905">
        <ele>113</ele>
        <time>2016-10-16T07:24:14Z</time>
      </trkpt>
      <trkpt lat="43.20891" lon="5.49074">
        <ele>112</ele>
        <time>2016-10-16T07:24:29Z</time>
      </trkpt>
      <trkpt lat="43.20892" lon="5.49082">
        <ele>112</ele>
        <time>2016-10-16T07:24:33Z</time>
      </trkpt>
      <trkpt lat="43.2089" lon="5.49088">
        <ele>112</ele>
        <time>2016-10-16T07:24:37Z</time>
      </trkpt>
      <trkpt lat="43.20882" lon="5.49097">
        <ele>111</ele>
        <time>2016-10-16T07:24:45Z</time>
      </trkpt>
      <trkpt lat="43.20848" lon="5.49123">
        <ele>107</ele>
        <time>2016-10-16T07:25:18Z</time>
      </trkpt>
      <trkpt lat="43.20834" lon="5.49122">
        <ele>105</ele>
        <time>2016-10-16T07:25:33Z</time>
      </trkpt>
      <trkpt lat="43.20825" lon="5.49117">
        <ele>104</ele>
        <time>2016-10-16T07:25:41Z</time>
      </trkpt>
      <trkpt lat="43.20822" lon="5.49113">
        <ele>104</ele>
        <time>2016-10-16T07:25:46Z</time>
      </trkpt>
      <trkpt lat="43.2082" lon="5.49106">
        <ele>103</ele>
        <time>2016-10-16T07:25:51Z</time>
      </trkpt>
      <trkpt lat="43.20815" lon="5.49104">
        <ele>103</ele>
        <time>2016-10-16T07:25:55Z</time>
      </trkpt>
      <trkpt lat="43.20787" lon="5.49119">
        <ele>100</ele>
        <time>2016-10-16T07:26:16Z</time>
      </trkpt>
      <trkpt lat="43.20779" lon="5.49128">
        <ele>99</ele>
        <time>2016-10-16T07:26:24Z</time>
      </trkpt>
      <trkpt lat="43.20765" lon="5.49136">
        <ele>99</ele>
        <time>2016-10-16T07:26:35Z</time>
      </trkpt>
      <trkpt lat="43.20755" lon="5.49137">
        <ele>98</ele>
        <time>2016-10-16T07:26:43Z</time>
      </trkpt>
      <trkpt lat="43.20746" lon="5.4913">
        <ele>97</ele>
        <time>2016-10-16T07:26:51Z</time>
      </trkpt>
      <trkpt lat="43.20741" lon="5.49133">
        <ele>96</ele>
        <time>2016-10-16T07:26:56Z</time>
      </trkpt>
      <trkpt lat="43.20712" lon="5.49157">
        <ele>93</ele>
        <time>2016-10-16T07:27:27Z</time>
      </trkpt>
      <trkpt lat="43.20707" lon="5.49158">
        <ele>92</ele>
        <time>2016-10-16T07:27:31Z</time>
      </trkpt>
      <trkpt lat="43.20703" lon="5.49161">
        <ele>92</ele>
        <time>2016-10-16T07:27:35Z</time>
      </trkpt>
      <trkpt lat="43.20682" lon="5.49162">
        <ele>92</ele>
        <time>2016-10-16T07:27:52Z</time>
      </trkpt>
      <trkpt lat="43.20677" lon="5.4916">
        <ele>92</ele>
        <time>2016-10-16T07:27:56Z</time>
      </trkpt>
      <trkpt lat="43.20668" lon="5.49158">
        <ele>91</ele>
        <time>2016-10-16T07:28:04Z</time>
      </trkpt>
      <trkpt lat="43.20658" lon="5.49146">
        <ele>89</ele>
        <time>2016-10-16T07:28:18Z</time>
      </trkpt>
      <trkpt lat="43.20647" lon="5.49147">
        <ele>88</ele>
        <time>2016-10-16T07:28:26Z</time>
      </trkpt>
      <trkpt lat="43.20619" lon="5.49155">
        <ele>85</ele>
        <time>2016-10-16T07:28:50Z</time>
      </trkpt>
      <trkpt lat="43.20597" lon="5.49139">
        <ele>82</ele>
        <time>2016-10-16T07:29:13Z</time>
      </trkpt>
      <trkpt lat="43.20592" lon="5.49143">
        <ele>80</ele>
        <time>2016-10-16T07:29:20Z</time>
      </trkpt>
      <trkpt lat="43.20593" lon="5.4915">
        <ele>79</ele>
        <time>2016-10-16T07:29:27Z</time>
      </trkpt>
      <trkpt lat="43.20594" lon="5.49156">
        <ele>77</ele>
        <time>2016-10-16T07:29:32Z</time>
      </trkpt>
      <trkpt lat="43.20591" lon="5.49161">
        <ele>74</ele>
        <time>2016-10-16T07:29:42Z</time>
      </trkpt>
      <trkpt lat="43.20574" lon="5.49164">
        <ele>69</ele>
        <time>2016-10-16T07:29:58Z</time>
      </trkpt>
      <trkpt lat="43.20569" lon="5.49164">
        <ele>68</ele>
        <time>2016-10-16T07:30:07Z</time>
      </trkpt>
      <trkpt lat="43.20543" lon="5.49149">
        <ele>59</ele>
        <time>2016-10-16T07:30:47Z</time>
      </trkpt>
      <trkpt lat="43.20536" lon="5.49141">
        <ele>56</ele>
        <time>2016-10-16T07:30:57Z</time>
      </trkpt>
      <trkpt lat="43.20526" lon="5.4914">
        <ele>54</ele>
        <time>2016-10-16T07:31:05Z</time>
      </trkpt>
      <trkpt lat="43.20521" lon="5.49128">
        <ele>52</ele>
        <time>2016-10-16T07:31:15Z</time>
      </trkpt>
      <trkpt lat="43.20522" lon="5.49121">
        <ele>51</ele>
        <time>2016-10-16T07:31:20Z</time>
      </trkpt>
      <trkpt lat="43.2052" lon="5.49115">
        <ele>51</ele>
        <time>2016-10-16T07:31:28Z</time>
      </trkpt>
      <trkpt lat="43.20522" lon="5.49108">
        <ele>52</ele>
        <time>2016-10-16T07:31:35Z</time>
      </trkpt>
      <trkpt lat="43.20526" lon="5.49104">
        <ele>53</ele>
        <time>2016-10-16T07:31:42Z</time>
      </trkpt>
      <trkpt lat="43.20527" lon="5.49098">
        <ele>54</ele>
        <time>2016-10-16T07:31:49Z</time>
      </trkpt>
      <trkpt lat="43.20531" lon="5.49095">
        <ele>55</ele>
        <time>2016-10-16T07:31:56Z</time>
      </trkpt>
      <trkpt lat="43.2053" lon="5.49091">
        <ele>56</ele>
        <time>2016-10-16T07:32:07Z</time>
      </trkpt>
      <trkpt lat="43.20528" lon="5.49083">
        <ele>59</ele>
        <time>2016-10-16T07:32:25Z</time>
      </trkpt>
      <trkpt lat="43.20519" lon="5.49074">
        <ele>65</ele>
        <time>2016-10-16T07:33:00Z</time>
      </trkpt>
      <trkpt lat="43.20517" lon="5.49073">
        <ele>66</ele>
        <time>2016-10-16T07:33:07Z</time>
      </trkpt>
      <trkpt lat="43.20516" lon="5.49068">
        <ele>67</ele>
        <time>2016-10-16T07:33:18Z</time>
      </trkpt>
      <trkpt lat="43.20515" lon="5.49058">
        <ele>72</ele>
        <time>2016-10-16T07:33:41Z</time>
      </trkpt>
      <trkpt lat="43.20512" lon="5.49053">
        <ele>74</ele>
        <time>2016-10-16T07:33:51Z</time>
      </trkpt>
      <trkpt lat="43.20513" lon="5.4905">
        <ele>75</ele>
        <time>2016-10-16T07:33:57Z</time>
      </trkpt>
      <trkpt lat="43.20517" lon="5.49048">
        <ele>76</ele>
        <time>2016-10-16T07:34:05Z</time>
      </trkpt>
      <trkpt lat="43.20511" lon="5.49044">
        <ele>78</ele>
        <time>2016-10-16T07:34:19Z</time>
      </trkpt>
      <trkpt lat="43.20514" lon="5.49039">
        <ele>81</ele>
        <time>2016-10-16T07:34:28Z</time>
      </trkpt>
      <trkpt lat="43.20512" lon="5.49033">
        <ele>82</ele>
        <time>2016-10-16T07:34:35Z</time>
      </trkpt>
      <trkpt lat="43.20514" lon="5.49027">
        <ele>84</ele>
        <time>2016-10-16T07:34:46Z</time>
      </trkpt>
      <trkpt lat="43.20511" lon="5.49023">
        <ele>83</ele>
        <time>2016-10-16T07:34:56Z</time>
      </trkpt>
      <trkpt lat="43.2051" lon="5.49018">
        <ele>81</ele>
        <time>2016-10-16T07:35:06Z</time>
      </trkpt>
      <trkpt lat="43.2051" lon="5.49015">
        <ele>79</ele>
        <time>2016-10-16T07:35:12Z</time>
      </trkpt>
      <trkpt lat="43.2051" lon="5.49009">
        <ele>79</ele>
        <time>2016-10-16T07:35:23Z</time>
      </trkpt>
      <trkpt lat="43.20508" lon="5.49003">
        <ele>79</ele>
        <time>2016-10-16T07:35:31Z</time>
      </trkpt>
      <trkpt lat="43.20503" lon="5.48988">
        <ele>84</ele>
        <time>2016-10-16T07:36:08Z</time>
      </trkpt>
      <trkpt lat="43.20505" lon="5.48983">
        <ele>85</ele>
        <time>2016-10-16T07:36:16Z</time>
      </trkpt>
      <trkpt lat="43.20509" lon="5.48974">
        <ele>88</ele>
        <time>2016-10-16T07:36:32Z</time>
      </trkpt>
      <trkpt lat="43.20506" lon="5.48967">
        <ele>90</ele>
        <time>2016-10-16T07:36:46Z</time>
      </trkpt>
      <trkpt lat="43.20507" lon="5.4896">
        <ele>91</ele>
        <time>2016-10-16T07:36:55Z</time>
      </trkpt>
      <trkpt lat="43.20505" lon="5.48955">
        <ele>93</ele>
        <time>2016-10-16T07:37:04Z</time>
      </trkpt>
      <trkpt lat="43.20505" lon="5.48941">
        <ele>95</ele>
        <time>2016-10-16T07:37:22Z</time>
      </trkpt>
      <trkpt lat="43.20503" lon="5.48939">
        <ele>96</ele>
        <time>2016-10-16T07:37:39Z</time>
      </trkpt>
      <trkpt lat="43.205" lon="5.48944">
        <ele>97</ele>
        <time>2016-10-16T07:37:45Z</time>
      </trkpt>
      <trkpt lat="43.20499" lon="5.48949">
        <ele>100</ele>
        <time>2016-10-16T07:38:25Z</time>
      </trkpt>
      <trkpt lat="43.20495" lon="5.48952">
        <ele>103</ele>
        <time>2016-10-16T07:38:54Z</time>
      </trkpt>
      <trkpt lat="43.20487" lon="5.48959">
        <ele>104</ele>
        <time>2016-10-16T07:39:03Z</time>
      </trkpt>
      <trkpt lat="43.20483" lon="5.48959">
        <ele>105</ele>
        <time>2016-10-16T07:39:10Z</time>
      </trkpt>
      <trkpt lat="43.20478" lon="5.48962">
        <ele>106</ele>
        <time>2016-10-16T07:39:17Z</time>
      </trkpt>
      <trkpt lat="43.20481" lon="5.48962">
        <ele>109</ele>
        <time>2016-10-16T07:44:08Z</time>
      </trkpt>
      <trkpt lat="43.20481" lon="5.48967">
        <ele>111</ele>
        <time>2016-10-16T07:48:14Z</time>
      </trkpt>
      <trkpt lat="43.20483" lon="5.48968">
        <ele>111</ele>
        <time>2016-10-16T07:48:41Z</time>
      </trkpt>
      <trkpt lat="43.20479" lon="5.48967">
        <ele>114</ele>
        <time>2016-10-16T07:55:01Z</time>
      </trkpt>
      <trkpt lat="43.20477" lon="5.48968">
        <ele>114</ele>
        <time>2016-10-16T07:55:18Z</time>
      </trkpt>
      <trkpt lat="43.20473" lon="5.48968">
        <ele>114</ele>
        <time>2016-10-16T07:57:08Z</time>
      </trkpt>
      <trkpt lat="43.20476" lon="5.48964">
        <ele>114</ele>
        <time>2016-10-16T07:57:43Z</time>
      </trkpt>
      <trkpt lat="43.2048" lon="5.48961">
        <ele>114</ele>
        <time>2016-10-16T07:58:08Z</time>
      </trkpt>
      <trkpt lat="43.20482" lon="5.48964">
        <ele>114</ele>
        <time>2016-10-16T07:58:58Z</time>
      </trkpt>
      <trkpt lat="43.2048" lon="5.4897">
        <ele>114</ele>
        <time>2016-10-16T07:59:05Z</time>
      </trkpt>
      <trkpt lat="43.20476" lon="5.48972">
        <ele>114</ele>
        <time>2016-10-16T07:59:12Z</time>
      </trkpt>
      <trkpt lat="43.20469" lon="5.48971">
        <ele>114</ele>
        <time>2016-10-16T07:59:27Z</time>
      </trkpt>
      <trkpt lat="43.20466" lon="5.48979">
        <ele>109</ele>
        <time>2016-10-16T08:00:42Z</time>
      </trkpt>
      <trkpt lat="43.20463" lon="5.48982">
        <ele>106</ele>
        <time>2016-10-16T08:01:40Z</time>
      </trkpt>
      <trkpt lat="43.20458" lon="5.4898">
        <ele>104</ele>
        <time>2016-10-16T08:02:05Z</time>
      </trkpt>
      <trkpt lat="43.20454" lon="5.48982">
        <ele>103</ele>
        <time>2016-10-16T08:02:16Z</time>
      </trkpt>
      <trkpt lat="43.20451" lon="5.48989">
        <ele>101</ele>
        <time>2016-10-16T08:02:36Z</time>
      </trkpt>
      <trkpt lat="43.20441" lon="5.48986">
        <ele>99</ele>
        <time>2016-10-16T08:02:54Z</time>
      </trkpt>
      <trkpt lat="43.20422" lon="5.48982">
        <ele>93</ele>
        <time>2016-10-16T08:03:32Z</time>
      </trkpt>
      <trkpt lat="43.20413" lon="5.48983">
        <ele>90</ele>
        <time>2016-10-16T08:03:46Z</time>
      </trkpt>
      <trkpt lat="43.20395" lon="5.48991">
        <ele>84</ele>
        <time>2016-10-16T08:04:23Z</time>
      </trkpt>
      <trkpt lat="43.20395" lon="5.49001">
        <ele>82</ele>
        <time>2016-10-16T08:04:45Z</time>
      </trkpt>
      <trkpt lat="43.20389" lon="5.49001">
        <ele>79</ele>
        <time>2016-10-16T08:05:49Z</time>
      </trkpt>
      <trkpt lat="43.20374" lon="5.48986">
        <ele>71</ele>
        <time>2016-10-16T08:16:25Z</time>
      </trkpt>
      <trkpt lat="43.2037" lon="5.48972">
        <ele>67</ele>
        <time>2016-10-16T08:17:26Z</time>
      </trkpt>
      <trkpt lat="43.20367" lon="5.48979">
        <ele>66</ele>
        <time>2016-10-16T08:17:51Z</time>
      </trkpt>
      <trkpt lat="43.20368" lon="5.49003">
        <ele>66</ele>
        <time>2016-10-16T08:18:14Z</time>
      </trkpt>
      <trkpt lat="43.20373" lon="5.49012">
        <ele>66</ele>
        <time>2016-10-16T08:18:26Z</time>
      </trkpt>
      <trkpt lat="43.20379" lon="5.49004">
        <ele>64</ele>
        <time>2016-10-16T08:23:08Z</time>
      </trkpt>
      <trkpt lat="43.20376" lon="5.49004">
        <ele>64</ele>
        <time>2016-10-16T08:28:48Z</time>
      </trkpt>
      <trkpt lat="43.20417" lon="5.48979">
        <ele>64</ele>
        <time>2016-10-16T08:29:22Z</time>
      </trkpt>
      <trkpt lat="43.20497" lon="5.48975">
        <ele>65</ele>
        <time>2016-10-16T08:29:46Z</time>
      </trkpt>
      <trkpt lat="43.20463" lon="5.48981">
        <ele>65</ele>
        <time>2016-10-16T08:29:52Z</time>
      </trkpt>
      <trkpt lat="43.20453" lon="5.48976">
        <ele>66</ele>
        <time>2016-10-16T08:30:42Z</time>
      </trkpt>
      <trkpt lat="43.20415" lon="5.4899">
        <ele>66</ele>
        <time>2016-10-16T08:33:02Z</time>
      </trkpt>
      <trkpt lat="43.20435" lon="5.48996">
        <ele>66</ele>
        <time>2016-10-16T08:35:45Z</time>
      </trkpt>
      <trkpt lat="43.20456" lon="5.48976">
        <ele>66</ele>
        <time>2016-10-16T08:37:12Z</time>
      </trkpt>
      <trkpt lat="43.20494" lon="5.48987">
        <ele>66</ele>
        <time>2016-10-16T08:37:55Z</time>
      </trkpt>
      <trkpt lat="43.20495" lon="5.48953">
        <ele>66</ele>
        <time>2016-10-16T08:38:11Z</time>
      </trkpt>
      <trkpt lat="43.20499" lon="5.48986">
        <ele>67</ele>
        <time>2016-10-16T08:39:06Z</time>
      </trkpt>
      <trkpt lat="43.20443" lon="5.48979">
        <ele>67</ele>
        <time>2016-10-16T08:39:19Z</time>
      </trkpt>
      <trkpt lat="43.20419" lon="5.48944">
        <ele>67</ele>
        <time>2016-10-16T08:39:21Z</time>
      </trkpt>
      <trkpt lat="43.20435" lon="5.48901">
        <ele>68</ele>
        <time>2016-10-16T08:39:38Z</time>
      </trkpt>
      <trkpt lat="43.20467" lon="5.489">
        <ele>68</ele>
        <time>2016-10-16T08:39:45Z</time>
      </trkpt>
      <trkpt lat="43.20403" lon="5.48968">
        <ele>68</ele>
        <time>2016-10-16T08:40:37Z</time>
      </trkpt>
      <trkpt lat="43.20397" lon="5.49003">
        <ele>70</ele>
        <time>2016-10-16T08:41:06Z</time>
      </trkpt>
      <trkpt lat="43.20384" lon="5.49016">
        <ele>70</ele>
        <time>2016-10-16T08:41:14Z</time>
      </trkpt>
      <trkpt lat="43.20362" lon="5.48999">
        <ele>71</ele>
        <time>2016-10-16T08:41:19Z</time>
      </trkpt>
      <trkpt lat="43.20371" lon="5.4895">
        <ele>71</ele>
        <time>2016-10-16T08:42:20Z</time>
      </trkpt>
      <trkpt lat="43.20364" lon="5.48945">
        <ele>71</ele>
        <time>2016-10-16T08:44:02Z</time>
      </trkpt>
      <trkpt lat="43.20342" lon="5.48928">
        <ele>72</ele>
        <time>2016-10-16T08:47:02Z</time>
      </trkpt>
      <trkpt lat="43.2034" lon="5.48921">
        <ele>73</ele>
        <time>2016-10-16T08:57:51Z</time>
      </trkpt>
      <trkpt lat="43.20341" lon="5.48915">
        <ele>73</ele>
        <time>2016-10-16T09:02:59Z</time>
      </trkpt>
      <trkpt lat="43.20337" lon="5.48892">
        <ele>73</ele>
        <time>2016-10-16T09:05:19Z</time>
      </trkpt>
      <trkpt lat="43.20334" lon="5.48899">
        <ele>74</ele>
        <time>2016-10-16T09:09:13Z</time>
      </trkpt>
      <trkpt lat="43.20337" lon="5.48928">
        <ele>74</ele>
        <time>2016-10-16T09:13:28Z</time>
      </trkpt>
      <trkpt lat="43.20359" lon="5.48959">
        <ele>73</ele>
        <time>2016-10-16T09:14:18Z</time>
      </trkpt>
      <trkpt lat="43.20357" lon="5.48969">
        <ele>71</ele>
        <time>2016-10-16T09:15:10Z</time>
      </trkpt>
      <trkpt lat="43.20358" lon="5.48959">
        <ele>50</ele>
        <time>2016-10-16T09:21:58Z</time>
      </trkpt>
      <trkpt lat="43.20361" lon="5.48967">
        <ele>49</ele>
        <time>2016-10-16T09:33:28Z</time>
      </trkpt>
      <trkpt lat="43.20355" lon="5.48967">
        <ele>48</ele>
        <time>2016-10-16T09:35:23Z</time>
      </trkpt>
      <trkpt lat="43.20354" lon="5.48957">
        <ele>42</ele>
        <time>2016-10-16T09:58:31Z</time>
      </trkpt>
      <trkpt lat="43.20351" lon="5.48957">
        <ele>56</ele>
        <time>2016-10-16T10:04:37Z</time>
      </trkpt>
      <trkpt lat="43.20347" lon="5.48952">
        <ele>58</ele>
        <time>2016-10-16T10:10:47Z</time>
      </trkpt>
      <trkpt lat="43.20343" lon="5.48947">
        <ele>59</ele>
        <time>2016-10-16T10:13:39Z</time>
      </trkpt>
      <trkpt lat="43.20335" lon="5.48941">
        <ele>67</ele>
        <time>2016-10-16T10:14:33Z</time>
      </trkpt>
      <trkpt lat="43.20333" lon="5.48936">
        <ele>83</ele>
        <time>2016-10-16T10:15:07Z</time>
      </trkpt>
      <trkpt lat="43.20331" lon="5.48927">
        <ele>88</ele>
        <time>2016-10-16T10:16:03Z</time>
      </trkpt>
      <trkpt lat="43.20325" lon="5.48927">
        <ele>92</ele>
        <time>2016-10-16T10:17:23Z</time>
      </trkpt>
      <trkpt lat="43.20323" lon="5.48921">
        <ele>107</ele>
        <time>2016-10-16T10:22:20Z</time>
      </trkpt>
      <trkpt lat="43.20323" lon="5.48915">
        <ele>108</ele>
        <time>2016-10-16T10:24:12Z</time>
      </trkpt>
      <trkpt lat="43.20321" lon="5.48908">
        <ele>114</ele>
        <time>2016-10-16T10:34:55Z</time>
      </trkpt>
      <trkpt lat="43.2032" lon="5.48902">
        <ele>117</ele>
        <time>2016-10-16T10:42:24Z</time>
      </trkpt>
      <trkpt lat="43.20324" lon="5.48892">
        <ele>126</ele>
        <time>2016-10-16T10:45:53Z</time>
      </trkpt>
      <trkpt lat="43.20321" lon="5.48881">
        <ele>127</ele>
        <time>2016-10-16T10:49:18Z</time>
      </trkpt>
      <trkpt lat="43.20317" lon="5.48879">
        <ele>130</ele>
        <time>2016-10-16T10:51:30Z</time>
      </trkpt>
      <trkpt lat="43.2031" lon="5.48885">
        <ele>124</ele>
        <time>2016-10-16T10:54:58Z</time>
      </trkpt>
      <trkpt lat="43.20313" lon="5.48887">
        <ele>117</ele>
        <time>2016-10-16T10:56:48Z</time>
      </trkpt>
      <trkpt lat="43.20314" lon="5.48893">
        <ele>115</ele>
        <time>2016-10-16T11:00:57Z</time>
      </trkpt>
      <trkpt lat="43.20308" lon="5.48895">
        <ele>100</ele>
        <time>2016-10-16T11:12:07Z</time>
      </trkpt>
      <trkpt lat="43.20305" lon="5.48891">
        <ele>113</ele>
        <time>2016-10-16T11:15:11Z</time>
      </trkpt>
      <trkpt lat="43.20305" lon="5.48885">
        <ele>127</ele>
        <time>2016-10-16T11:18:43Z</time>
      </trkpt>
      <trkpt lat="43.20307" lon="5.48875">
        <ele>127</ele>
        <time>2016-10-16T11:19:46Z</time>
      </trkpt>
      <trkpt lat="43.20308" lon="5.48885">
        <ele>134</ele>
        <time>2016-10-16T11:24:56Z</time>
      </trkpt>
      <trkpt lat="43.20308" lon="5.489">
        <ele>132</ele>
        <time>2016-10-16T11:26:27Z</time>
      </trkpt>
      <trkpt lat="43.20314" lon="5.48905">
        <ele>123</ele>
        <time>2016-10-16T11:27:51Z</time>
      </trkpt>
      <trkpt lat="43.20314" lon="5.48921">
        <ele>121</ele>
        <time>2016-10-16T11:28:05Z</time>
      </trkpt>
      <trkpt lat="43.20315" lon="5.48951">
        <ele>108</ele>
        <time>2016-10-16T11:28:21Z</time>
      </trkpt>
      <trkpt lat="43.20319" lon="5.48959">
        <ele>92</ele>
        <time>2016-10-16T11:29:28Z</time>
      </trkpt>
      <trkpt lat="43.20325" lon="5.48959">
        <ele>75</ele>
        <time>2016-10-16T11:32:06Z</time>
      </trkpt>
      <trkpt lat="43.2033" lon="5.48958">
        <ele>74</ele>
        <time>2016-10-16T11:32:44Z</time>
      </trkpt>
      <trkpt lat="43.20332" lon="5.48951">
        <ele>71</ele>
        <time>2016-10-16T11:33:55Z</time>
      </trkpt>
      <trkpt lat="43.20334" lon="5.48945">
        <ele>72</ele>
        <time>2016-10-16T11:34:50Z</time>
      </trkpt>
      <trkpt lat="43.20327" lon="5.48943">
        <ele>64</ele>
        <time>2016-10-16T11:35:47Z</time>
      </trkpt>
      <trkpt lat="43.20324" lon="5.4895">
        <ele>45</ele>
        <time>2016-10-16T11:37:06Z</time>
      </trkpt>
      <trkpt lat="43.20327" lon="5.48953">
        <ele>40</ele>
        <time>2016-10-16T11:38:09Z</time>
      </trkpt>
      <trkpt lat="43.20327" lon="5.48953">
        <ele>37</ele>
        <time>2016-10-16T11:40:23Z</time>
      </trkpt>
      <trkpt lat="43.20329" lon="5.48957">
        <ele>39</ele>
        <time>2016-10-16T11:43:56Z</time>
      </trkpt>
      <trkpt lat="43.2033" lon="5.48951">
        <ele>31</ele>
        <time>2016-10-16T11:54:43Z</time>
      </trkpt>
      <trkpt lat="43.20341" lon="5.48957">
        <ele>31</ele>
        <time>2016-10-16T11:55:04Z</time>
      </trkpt>
      <trkpt lat="43.20334" lon="5.48963">
        <ele>30</ele>
        <time>2016-10-16T11:55:55Z</time>
      </trkpt>
      <trkpt lat="43.20326" lon="5.48968">
        <ele>27</ele>
        <time>2016-10-16T11:58:23Z</time>
      </trkpt>
      <trkpt lat="43.20332" lon="5.48974">
        <ele>5</ele>
        <time>2016-10-16T11:59:13Z</time>
      </trkpt>
      <trkpt lat="43.20323" lon="5.48976">
        <ele>11</ele>
        <time>2016-10-16T12:10:55Z</time>
      </trkpt>
      <trkpt lat="43.20318" lon="5.48972">
        <ele>11</ele>
        <time>2016-10-16T12:11:09Z</time>
      </trkpt>
      <trkpt lat="43.20313" lon="5.48978">
        <ele>27</ele>
        <time>2016-10-16T12:16:57Z</time>
      </trkpt>
      <trkpt lat="43.20319" lon="5.48985">
        <ele>44</ele>
        <time>2016-10-16T12:44:23Z</time>
      </trkpt>
      <trkpt lat="43.20318" lon="5.48989">
        <ele>31</ele>
        <time>2016-10-16T12:45:08Z</time>
      </trkpt>
      <trkpt lat="43.20319" lon="5.48993">
        <ele>28</ele>
        <time>2016-10-16T12:45:19Z</time>
      </trkpt>
      <trkpt lat="43.20322" lon="5.48995">
        <ele>27</ele>
        <time>2016-10-16T12:45:31Z</time>
      </trkpt>
      <trkpt lat="43.20312" lon="5.49007">
        <ele>23</ele>
        <time>2016-10-16T13:09:21Z</time>
      </trkpt>
      <trkpt lat="43.20319" lon="5.49002">
        <ele>36</ele>
        <time>2016-10-16T13:11:52Z</time>
      </trkpt>
      <trkpt lat="43.20325" lon="5.49005">
        <ele>34</ele>
        <time>2016-10-16T13:12:30Z</time>
      </trkpt>
      <trkpt lat="43.20326" lon="5.49018">
        <ele>38</ele>
        <time>2016-10-16T13:14:20Z</time>
      </trkpt>
      <trkpt lat="43.2031" lon="5.49037">
        <ele>40</ele>
        <time>2016-10-16T13:14:43Z</time>
      </trkpt>
      <trkpt lat="43.20315" lon="5.49027">
        <ele>43</ele>
        <time>2016-10-16T13:14:51Z</time>
      </trkpt>
      <trkpt lat="43.20316" lon="5.49023">
        <ele>47</ele>
        <time>2016-10-16T13:15:24Z</time>
      </trkpt>
      <trkpt lat="43.20323" lon="5.49021">
        <ele>46</ele>
        <time>2016-10-16T13:15:57Z</time>
      </trkpt>
      <trkpt lat="43.20328" lon="5.49019">
        <ele>44</ele>
        <time>2016-10-16T13:16:06Z</time>
      </trkpt>
      <trkpt lat="43.20327" lon="5.49016">
        <ele>42</ele>
        <time>2016-10-16T13:17:39Z</time>
      </trkpt>
      <trkpt lat="43.20333" lon="5.49024">
        <ele>41</ele>
        <time>2016-10-16T13:18:40Z</time>
      </trkpt>
      <trkpt lat="43.20329" lon="5.49028">
        <ele>42</ele>
        <time>2016-10-16T13:21:08Z</time>
      </trkpt>
      <trkpt lat="43.2032" lon="5.49037">
        <ele>46</ele>
        <time>2016-10-16T13:22:30Z</time>
      </trkpt>
      <trkpt lat="43.203" lon="5.49042">
        <ele>64</ele>
        <time>2016-10-16T13:23:43Z</time>
      </trkpt>
      <trkpt lat="43.203" lon="5.49034">
        <ele>66</ele>
        <time>2016-10-16T13:24:44Z</time>
      </trkpt>
      <trkpt lat="43.20305" lon="5.49028">
        <ele>72</ele>
        <time>2016-10-16T13:27:24Z</time>
      </trkpt>
      <trkpt lat="43.20325" lon="5.49023">
        <ele>73</ele>
        <time>2016-10-16T13:28:57Z</time>
      </trkpt>
      <trkpt lat="43.20314" lon="5.49017">
        <ele>80</ele>
        <time>2016-10-16T13:30:54Z</time>
      </trkpt>
      <trkpt lat="43.2031" lon="5.49023">
        <ele>73</ele>
        <time>2016-10-16T13:31:30Z</time>
      </trkpt>
      <trkpt lat="43.20307" lon="5.49024">
        <ele>67</ele>
        <time>2016-10-16T13:31:36Z</time>
      </trkpt>
      <trkpt lat="43.20304" lon="5.49021">
        <ele>62</ele>
        <time>2016-10-16T13:32:23Z</time>
      </trkpt>
      <trkpt lat="43.20298" lon="5.49017">
        <ele>58</ele>
        <time>2016-10-16T13:34:45Z</time>
      </trkpt>
      <trkpt lat="43.20303" lon="5.49009">
        <ele>58</ele>
        <time>2016-10-16T13:36:23Z</time>
      </trkpt>
      <trkpt lat="43.20307" lon="5.49011">
        <ele>59</ele>
        <time>2016-10-16T13:41:58Z</time>
      </trkpt>
      <trkpt lat="43.20311" lon="5.49018">
        <ele>61</ele>
        <time>2016-10-16T13:49:48Z</time>
      </trkpt>
      <trkpt lat="43.2031" lon="5.49026">
        <ele>60</ele>
        <time>2016-10-16T13:50:38Z</time>
      </trkpt>
      <trkpt lat="43.20304" lon="5.49027">
        <ele>60</ele>
        <time>2016-10-16T13:51:19Z</time>
      </trkpt>
      <trkpt lat="43.20296" lon="5.49017">
        <ele>59</ele>
        <time>2016-10-16T13:51:35Z</time>
      </trkpt>
      <trkpt lat="43.20301" lon="5.49013">
        <ele>59</ele>
        <time>2016-10-16T14:06:07Z</time>
      </trkpt>
      <trkpt lat="43.2031" lon="5.49013">
        <ele>60</ele>
        <time>2016-10-16T14:11:08Z</time>
      </trkpt>
      <trkpt lat="43.20308" lon="5.49006">
        <ele>60</ele>
        <time>2016-10-16T14:11:45Z</time>
      </trkpt>
      <trkpt lat="43.20312" lon="5.49003">
        <ele>73</ele>
        <time>2016-10-16T14:14:10Z</time>
      </trkpt>
      <trkpt lat="43.20342" lon="5.49015">
        <ele>91</ele>
        <time>2016-10-16T14:14:42Z</time>
      </trkpt>
      <trkpt lat="43.20334" lon="5.49011">
        <ele>102</ele>
        <time>2016-10-16T14:15:11Z</time>
      </trkpt>
      <trkpt lat="43.20313" lon="5.49">
        <ele>103</ele>
        <time>2016-10-16T14:15:19Z</time>
      </trkpt>
      <trkpt lat="43.2032" lon="5.49008">
        <ele>108</ele>
        <time>2016-10-16T14:17:24Z</time>
      </trkpt>
      <trkpt lat="43.20324" lon="5.49013">
        <ele>98</ele>
        <time>2016-10-16T14:18:07Z</time>
      </trkpt>
      <trkpt lat="43.20321" lon="5.49016">
        <ele>92</ele>
        <time>2016-10-16T14:20:10Z</time>
      </trkpt>
      <trkpt lat="43.20312" lon="5.49022">
        <ele>89</ele>
        <time>2016-10-16T14:21:30Z</time>
      </trkpt>
      <trkpt lat="43.20305" lon="5.49028">
        <ele>74</ele>
        <time>2016-10-16T14:22:22Z</time>
      </trkpt>
      <trkpt lat="43.20296" lon="5.49026">
        <ele>67</ele>
        <time>2016-10-16T14:23:01Z</time>
      </trkpt>
      <trkpt lat="43.2029" lon="5.4903">
        <ele>61</ele>
        <time>2016-10-16T14:43:13Z</time>
      </trkpt>
      <trkpt lat="43.20286" lon="5.49024">
        <ele>55</ele>
        <time>2016-10-16T15:01:29Z</time>
      </trkpt>
      <trkpt lat="43.20281" lon="5.49044">
        <ele>51</ele>
        <time>2016-10-16T15:02:00Z</time>
      </trkpt>
      <trkpt lat="43.20288" lon="5.49037">
        <ele>50</ele>
        <time>2016-10-16T15:02:20Z</time>
      </trkpt>
      <trkpt lat="43.2029" lon="5.49036">
        <ele>34</ele>
        <time>2016-10-16T15:13:05Z</time>
      </trkpt>
      <trkpt lat="43.20297" lon="5.4904">
        <ele>37</ele>
        <time>2016-10-16T15:16:15Z</time>
      </trkpt>
      <trkpt lat="43.20301" lon="5.49045">
        <ele>37</ele>
        <time>2016-10-16T15:16:23Z</time>
      </trkpt>
      <trkpt lat="43.20299" lon="5.49052">
        <ele>41</ele>
        <time>2016-10-16T15:17:29Z</time>
      </trkpt>
      <trkpt lat="43.20291" lon="5.49056">
        <ele>39</ele>
        <time>2016-10-16T15:18:38Z</time>
      </trkpt>
      <trkpt lat="43.20291" lon="5.49063">
        <ele>39</ele>
        <time>2016-10-16T15:18:50Z</time>
      </trkpt>
      <trkpt lat="43.20279" lon="5.49052">
        <ele>31</ele>
        <time>2016-10-16T15:20:42Z</time>
      </trkpt>
      <trkpt lat="43.20287" lon="5.4904">
        <ele>33</ele>
        <time>2016-10-16T15:21:06Z</time>
      </trkpt>
      <trkpt lat="43.20293" lon="5.49034">
        <ele>53</ele>
        <time>2016-10-16T15:22:57Z</time>
      </trkpt>
      <trkpt lat="43.20294" lon="5.49028">
        <ele>61</ele>
        <time>2016-10-16T15:28:30Z</time>
      </trkpt>
      <trkpt lat="43.20292" lon="5.49023">
        <ele>64</ele>
        <time>2016-10-16T15:28:46Z</time>
      </trkpt>
      <trkpt lat="43.2028" lon="5.49023">
        <ele>64</ele>
        <time>2016-10-16T15:29:44Z</time>
      </trkpt>
      <trkpt lat="43.20276" lon="5.49033">
        <ele>55</ele>
        <time>2016-10-16T15:30:34Z</time>
      </trkpt>
      <trkpt lat="43.20272" lon="5.49041">
        <ele>55</ele>
        <time>2016-10-16T15:30:57Z</time>
      </trkpt>
      <trkpt lat="43.2027" lon="5.49048">
        <ele>56</ele>
        <time>2016-10-16T15:31:24Z</time>
      </trkpt>
      <trkpt lat="43.20273" lon="5.49045">
        <ele>63</ele>
        <time>2016-10-16T15:44:19Z</time>
      </trkpt>
      <trkpt lat="43.20273" lon="5.49045">
        <ele>80</ele>
        <time>2016-10-16T15:59:41Z</time>
      </trkpt>
      <trkpt lat="43.20273" lon="5.49052">
        <ele>80</ele>
        <time>2016-10-16T16:00:08Z</time>
      </trkpt>
      <trkpt lat="43.2027" lon="5.49053">
        <ele>80</ele>
        <time>2016-10-16T16:01:55Z</time>
      </trkpt>
      <trkpt lat="43.20267" lon="5.49056">
        <ele>76</ele>
        <time>2016-10-16T16:04:06Z</time>
      </trkpt>
      <trkpt lat="43.20265" lon="5.4906">
        <ele>76</ele>
        <time>2016-10-16T16:08:49Z</time>
      </trkpt>
      <trkpt lat="43.20269" lon="5.49064">
        <ele>73</ele>
        <time>2016-10-16T16:18:21Z</time>
      </trkpt>
      <trkpt lat="43.20268" lon="5.49067">
        <ele>73</ele>
        <time>2016-10-16T16:18:40Z</time>
      </trkpt>
      <trkpt lat="43.20273" lon="5.49067">
        <ele>76</ele>
        <time>2016-10-16T16:18:52Z</time>
      </trkpt>
      <trkpt lat="43.20275" lon="5.4907">
        <ele>78</ele>
        <time>2016-10-16T16:18:59Z</time>
      </trkpt>
      <trkpt lat="43.20281" lon="5.49079">
        <ele>84</ele>
        <time>2016-10-16T16:19:33Z</time>
      </trkpt>
      <trkpt lat="43.20285" lon="5.4908">
        <ele>85</ele>
        <time>2016-10-16T16:19:49Z</time>
      </trkpt>
      <trkpt lat="43.20297" lon="5.49075">
        <ele>89</ele>
        <time>2016-10-16T16:20:18Z</time>
      </trkpt>
      <trkpt lat="43.203" lon="5.49068">
        <ele>92</ele>
        <time>2016-10-16T16:20:32Z</time>
      </trkpt>
      <trkpt lat="43.20301" lon="5.49062">
        <ele>94</ele>
        <time>2016-10-16T16:20:40Z</time>
      </trkpt>
      <trkpt lat="43.20305" lon="5.49061">
        <ele>96</ele>
        <time>2016-10-16T16:20:50Z</time>
      </trkpt>
      <trkpt lat="43.20305" lon="5.49057">
        <ele>98</ele>
        <time>2016-10-16T16:28:19Z</time>
      </trkpt>
      <trkpt lat="43.20314" lon="5.49055">
        <ele>98</ele>
        <time>2016-10-16T16:29:20Z</time>
      </trkpt>
      <trkpt lat="43.20311" lon="5.49058">
        <ele>98</ele>
        <time>2016-10-16T16:30:36Z</time>
      </trkpt>
      <trkpt lat="43.20313" lon="5.49062">
        <ele>98</ele>
        <time>2016-10-16T16:31:16Z</time>
      </trkpt>
      <trkpt lat="43.20322" lon="5.49067">
        <ele>94</ele>
        <time>2016-10-16T16:31:31Z</time>
      </trkpt>
      <trkpt lat="43.20327" lon="5.49068">
        <ele>94</ele>
        <time>2016-10-16T16:31:40Z</time>
      </trkpt>
      <trkpt lat="43.2033" lon="5.49071">
        <ele>95</ele>
        <time>2016-10-16T16:31:50Z</time>
      </trkpt>
      <trkpt lat="43.20333" lon="5.49073">
        <ele>95</ele>
        <time>2016-10-16T16:31:56Z</time>
      </trkpt>
      <trkpt lat="43.20338" lon="5.49073">
        <ele>94</ele>
        <time>2016-10-16T16:32:09Z</time>
      </trkpt>
      <trkpt lat="43.20345" lon="5.49075">
        <ele>95</ele>
        <time>2016-10-16T16:32:22Z</time>
      </trkpt>
      <trkpt lat="43.20346" lon="5.49081">
        <ele>95</ele>
        <time>2016-10-16T16:32:28Z</time>
      </trkpt>
      <trkpt lat="43.20349" lon="5.49085">
        <ele>95</ele>
        <time>2016-10-16T16:32:35Z</time>
      </trkpt>
      <trkpt lat="43.20353" lon="5.49091">
        <ele>95</ele>
        <time>2016-10-16T16:32:49Z</time>
      </trkpt>
      <trkpt lat="43.20356" lon="5.49089">
        <ele>96</ele>
        <time>2016-10-16T16:32:59Z</time>
      </trkpt>
      <trkpt lat="43.20362" lon="5.49085">
        <ele>99</ele>
        <time>2016-10-16T16:33:13Z</time>
      </trkpt>
      <trkpt lat="43.20366" lon="5.49085">
        <ele>99</ele>
        <time>2016-10-16T16:33:20Z</time>
      </trkpt>
      <trkpt lat="43.20368" lon="5.49079">
        <ele>100</ele>
        <time>2016-10-16T16:33:29Z</time>
      </trkpt>
      <trkpt lat="43.20365" lon="5.49053">
        <ele>106</ele>
        <time>2016-10-16T16:34:12Z</time>
      </trkpt>
      <trkpt lat="43.20366" lon="5.49049">
        <ele>107</ele>
        <time>2016-10-16T16:34:18Z</time>
      </trkpt>
      <trkpt lat="43.20372" lon="5.49034">
        <ele>112</ele>
        <time>2016-10-16T16:34:51Z</time>
      </trkpt>
      <trkpt lat="43.20371" lon="5.49027">
        <ele>114</ele>
        <time>2016-10-16T16:35:03Z</time>
      </trkpt>
      <trkpt lat="43.20376" lon="5.49027">
        <ele>115</ele>
        <time>2016-10-16T16:35:12Z</time>
      </trkpt>
      <trkpt lat="43.2038" lon="5.4903">
        <ele>116</ele>
        <time>2016-10-16T16:35:18Z</time>
      </trkpt>
      <trkpt lat="43.20385" lon="5.49029">
        <ele>116</ele>
        <time>2016-10-16T16:35:26Z</time>
      </trkpt>
      <trkpt lat="43.20389" lon="5.49027">
        <ele>117</ele>
        <time>2016-10-16T16:35:33Z</time>
      </trkpt>
      <trkpt lat="43.20394" lon="5.49027">
        <ele>117</ele>
        <time>2016-10-16T16:35:39Z</time>
      </trkpt>
      <trkpt lat="43.20398" lon="5.49029">
        <ele>117</ele>
        <time>2016-10-16T16:35:49Z</time>
      </trkpt>
      <trkpt lat="43.20399" lon="5.49036">
        <ele>117</ele>
        <time>2016-10-16T16:35:55Z</time>
      </trkpt>
      <trkpt lat="43.20402" lon="5.49041">
        <ele>117</ele>
        <time>2016-10-16T16:36:01Z</time>
      </trkpt>
      <trkpt lat="43.20407" lon="5.4904">
        <ele>116</ele>
        <time>2016-10-16T16:36:13Z</time>
      </trkpt>
      <trkpt lat="43.20413" lon="5.49038">
        <ele>112</ele>
        <time>2016-10-16T16:36:48Z</time>
      </trkpt>
      <trkpt lat="43.20416" lon="5.49037">
        <ele>110</ele>
        <time>2016-10-16T16:37:12Z</time>
      </trkpt>
      <trkpt lat="43.2042" lon="5.49029">
        <ele>109</ele>
        <time>2016-10-16T16:37:22Z</time>
      </trkpt>
      <trkpt lat="43.20419" lon="5.49023">
        <ele>109</ele>
        <time>2016-10-16T16:37:30Z</time>
      </trkpt>
      <trkpt lat="43.20423" lon="5.49021">
        <ele>109</ele>
        <time>2016-10-16T16:37:39Z</time>
      </trkpt>
      <trkpt lat="43.20426" lon="5.4902">
        <ele>109</ele>
        <time>2016-10-16T16:37:56Z</time>
      </trkpt>
      <trkpt lat="43.2043" lon="5.49022">
        <ele>108</ele>
        <time>2016-10-16T16:38:04Z</time>
      </trkpt>
      <trkpt lat="43.20434" lon="5.49024">
        <ele>106</ele>
        <time>2016-10-16T16:38:12Z</time>
      </trkpt>
      <trkpt lat="43.2044" lon="5.49023">
        <ele>106</ele>
        <time>2016-10-16T16:38:18Z</time>
      </trkpt>
      <trkpt lat="43.20445" lon="5.49023">
        <ele>106</ele>
        <time>2016-10-16T16:38:28Z</time>
      </trkpt>
      <trkpt lat="43.20453" lon="5.49018">
        <ele>108</ele>
        <time>2016-10-16T16:38:42Z</time>
      </trkpt>
      <trkpt lat="43.20458" lon="5.49007">
        <ele>109</ele>
        <time>2016-10-16T16:38:56Z</time>
      </trkpt>
      <trkpt lat="43.20461" lon="5.49003">
        <ele>109</ele>
        <time>2016-10-16T16:39:03Z</time>
      </trkpt>
      <trkpt lat="43.20466" lon="5.48998">
        <ele>108</ele>
        <time>2016-10-16T16:39:17Z</time>
      </trkpt>
      <trkpt lat="43.2047" lon="5.48986">
        <ele>107</ele>
        <time>2016-10-16T16:39:31Z</time>
      </trkpt>
      <trkpt lat="43.20474" lon="5.48983">
        <ele>107</ele>
        <time>2016-10-16T16:39:40Z</time>
      </trkpt>
      <trkpt lat="43.20475" lon="5.4898">
        <ele>104</ele>
        <time>2016-10-16T16:39:50Z</time>
      </trkpt>
      <trkpt lat="43.20474" lon="5.48973">
        <ele>104</ele>
        <time>2016-10-16T16:39:59Z</time>
      </trkpt>
      <trkpt lat="43.20479" lon="5.48971">
        <ele>103</ele>
        <time>2016-10-16T16:40:07Z</time>
      </trkpt>
      <trkpt lat="43.20479" lon="5.48964">
        <ele>102</ele>
        <time>2016-10-16T16:40:17Z</time>
      </trkpt>
      <trkpt lat="43.20483" lon="5.48964">
        <ele>102</ele>
        <time>2016-10-16T16:41:55Z</time>
      </trkpt>
      <trkpt lat="43.20487" lon="5.48961">
        <ele>102</ele>
        <time>2016-10-16T16:41:59Z</time>
      </trkpt>
      <trkpt lat="43.20508" lon="5.48939">
        <ele>99</ele>
        <time>2016-10-16T16:42:29Z</time>
      </trkpt>
      <trkpt lat="43.2051" lon="5.4894">
        <ele>98</ele>
        <time>2016-10-16T16:42:36Z</time>
      </trkpt>
      <trkpt lat="43.2051" lon="5.48947">
        <ele>97</ele>
        <time>2016-10-16T16:42:41Z</time>
      </trkpt>
      <trkpt lat="43.20514" lon="5.48971">
        <ele>92</ele>
        <time>2016-10-16T16:43:03Z</time>
      </trkpt>
      <trkpt lat="43.20518" lon="5.48975">
        <ele>90</ele>
        <time>2016-10-16T16:43:09Z</time>
      </trkpt>
      <trkpt lat="43.20514" lon="5.48979">
        <ele>88</ele>
        <time>2016-10-16T16:43:13Z</time>
      </trkpt>
      <trkpt lat="43.20508" lon="5.48989">
        <ele>86</ele>
        <time>2016-10-16T16:43:25Z</time>
      </trkpt>
      <trkpt lat="43.20511" lon="5.48994">
        <ele>84</ele>
        <time>2016-10-16T16:43:33Z</time>
      </trkpt>
      <trkpt lat="43.20515" lon="5.48999">
        <ele>81</ele>
        <time>2016-10-16T16:43:41Z</time>
      </trkpt>
      <trkpt lat="43.20514" lon="5.49011">
        <ele>80</ele>
        <time>2016-10-16T16:43:54Z</time>
      </trkpt>
      <trkpt lat="43.2052" lon="5.49022">
        <ele>75</ele>
        <time>2016-10-16T16:44:11Z</time>
      </trkpt>
      <trkpt lat="43.20516" lon="5.49036">
        <ele>73</ele>
        <time>2016-10-16T16:44:29Z</time>
      </trkpt>
      <trkpt lat="43.20515" lon="5.49061">
        <ele>64</ele>
        <time>2016-10-16T16:45:03Z</time>
      </trkpt>
      <trkpt lat="43.20518" lon="5.49068">
        <ele>62</ele>
        <time>2016-10-16T16:45:16Z</time>
      </trkpt>
      <trkpt lat="43.20526" lon="5.49077">
        <ele>54</ele>
        <time>2016-10-16T16:45:41Z</time>
      </trkpt>
      <trkpt lat="43.20534" lon="5.4908">
        <ele>51</ele>
        <time>2016-10-16T16:45:55Z</time>
      </trkpt>
      <trkpt lat="43.20534" lon="5.49086">
        <ele>48</ele>
        <time>2016-10-16T16:46:08Z</time>
      </trkpt>
      <trkpt lat="43.20538" lon="5.49098">
        <ele>46</ele>
        <time>2016-10-16T16:46:21Z</time>
      </trkpt>
      <trkpt lat="43.2053" lon="5.49105">
        <ele>44</ele>
        <time>2016-10-16T16:46:29Z</time>
      </trkpt>
      <trkpt lat="43.20526" lon="5.49116">
        <ele>40</ele>
        <time>2016-10-16T16:46:39Z</time>
      </trkpt>
      <trkpt lat="43.20531" lon="5.4914">
        <ele>36</ele>
        <time>2016-10-16T16:46:54Z</time>
      </trkpt>
      <trkpt lat="43.2054" lon="5.49139">
        <ele>36</ele>
        <time>2016-10-16T16:47:07Z</time>
      </trkpt>
      <trkpt lat="43.20565" lon="5.49153">
        <ele>44</ele>
        <time>2016-10-16T16:47:47Z</time>
      </trkpt>
      <trkpt lat="43.20583" lon="5.4916">
        <ele>49</ele>
        <time>2016-10-16T16:48:16Z</time>
      </trkpt>
      <trkpt lat="43.20589" lon="5.49154">
        <ele>53</ele>
        <time>2016-10-16T16:48:34Z</time>
      </trkpt>
      <trkpt lat="43.20594" lon="5.49155">
        <ele>54</ele>
        <time>2016-10-16T16:48:42Z</time>
      </trkpt>
      <trkpt lat="43.20597" lon="5.49157">
        <ele>55</ele>
        <time>2016-10-16T16:48:50Z</time>
      </trkpt>
      <trkpt lat="43.20599" lon="5.49153">
        <ele>57</ele>
        <time>2016-10-16T16:49:00Z</time>
      </trkpt>
      <trkpt lat="43.20602" lon="5.49137">
        <ele>61</ele>
        <time>2016-10-16T16:49:21Z</time>
      </trkpt>
      <trkpt lat="43.20606" lon="5.49133">
        <ele>63</ele>
        <time>2016-10-16T16:49:31Z</time>
      </trkpt>
      <trkpt lat="43.20616" lon="5.49141">
        <ele>66</ele>
        <time>2016-10-16T16:49:49Z</time>
      </trkpt>
      <trkpt lat="43.20624" lon="5.49149">
        <ele>67</ele>
        <time>2016-10-16T16:49:57Z</time>
      </trkpt>
      <trkpt lat="43.20642" lon="5.49149">
        <ele>70</ele>
        <time>2016-10-16T16:50:16Z</time>
      </trkpt>
      <trkpt lat="43.2065" lon="5.49142">
        <ele>71</ele>
        <time>2016-10-16T16:50:27Z</time>
      </trkpt>
      <trkpt lat="43.20659" lon="5.49143">
        <ele>71</ele>
        <time>2016-10-16T16:50:37Z</time>
      </trkpt>
      <trkpt lat="43.20664" lon="5.49155">
        <ele>72</ele>
        <time>2016-10-16T16:50:47Z</time>
      </trkpt>
      <trkpt lat="43.20672" lon="5.49161">
        <ele>74</ele>
        <time>2016-10-16T16:50:57Z</time>
      </trkpt>
      <trkpt lat="43.20692" lon="5.49159">
        <ele>76</ele>
        <time>2016-10-16T16:51:11Z</time>
      </trkpt>
      <trkpt lat="43.207" lon="5.49164">
        <ele>76</ele>
        <time>2016-10-16T16:51:20Z</time>
      </trkpt>
      <trkpt lat="43.20709" lon="5.4916">
        <ele>76</ele>
        <time>2016-10-16T16:51:30Z</time>
      </trkpt>
      <trkpt lat="43.20733" lon="5.49139">
        <ele>77</ele>
        <time>2016-10-16T16:52:00Z</time>
      </trkpt>
      <trkpt lat="43.2074" lon="5.4913">
        <ele>78</ele>
        <time>2016-10-16T16:52:08Z</time>
      </trkpt>
      <trkpt lat="43.2075" lon="5.4913">
        <ele>79</ele>
        <time>2016-10-16T16:52:20Z</time>
      </trkpt>
      <trkpt lat="43.20785" lon="5.4912">
        <ele>82</ele>
        <time>2016-10-16T16:52:52Z</time>
      </trkpt>
      <trkpt lat="43.208" lon="5.49105">
        <ele>84</ele>
        <time>2016-10-16T16:53:10Z</time>
      </trkpt>
      <trkpt lat="43.20809" lon="5.49103">
        <ele>85</ele>
        <time>2016-10-16T16:53:19Z</time>
      </trkpt>
      <trkpt lat="43.20844" lon="5.49125">
        <ele>88</ele>
        <time>2016-10-16T16:53:52Z</time>
      </trkpt>
      <trkpt lat="43.20851" lon="5.49126">
        <ele>89</ele>
        <time>2016-10-16T16:53:59Z</time>
      </trkpt>
      <trkpt lat="43.2086" lon="5.49119">
        <ele>90</ele>
        <time>2016-10-16T16:54:09Z</time>
      </trkpt>
      <trkpt lat="43.20889" lon="5.49096">
        <ele>93</ele>
        <time>2016-10-16T16:54:43Z</time>
      </trkpt>
      <trkpt lat="43.20892" lon="5.4909">
        <ele>94</ele>
        <time>2016-10-16T16:54:48Z</time>
      </trkpt>
      <trkpt lat="43.20894" lon="5.49076">
        <ele>94</ele>
        <time>2016-10-16T16:54:56Z</time>
      </trkpt>
      <trkpt lat="43.20897" lon="5.49056">
        <ele>95</ele>
        <time>2016-10-16T16:55:09Z</time>
      </trkpt>
      <trkpt lat="43.20896" lon="5.49044">
        <ele>96</ele>
        <time>2016-10-16T16:55:18Z</time>
      </trkpt>
      <trkpt lat="43.20891" lon="5.49032">
        <ele>96</ele>
        <time>2016-10-16T16:55:25Z</time>
      </trkpt>
      <trkpt lat="43.20887" lon="5.4902">
        <ele>96</ele>
        <time>2016-10-16T16:55:33Z</time>
      </trkpt>
      <trkpt lat="43.20893" lon="5.4901">
        <ele>97</ele>
        <time>2016-10-16T16:55:47Z</time>
      </trkpt>
      <trkpt lat="43.20902" lon="5.49013">
        <ele>98</ele>
        <time>2016-10-16T16:55:57Z</time>
      </trkpt>
      <trkpt lat="43.20911" lon="5.49016">
        <ele>100</ele>
        <time>2016-10-16T16:56:05Z</time>
      </trkpt>
      <trkpt lat="43.2092" lon="5.49021">
        <ele>100</ele>
        <time>2016-10-16T16:56:14Z</time>
      </trkpt>
      <trkpt lat="43.20929" lon="5.49019">
        <ele>101</ele>
        <time>2016-10-16T16:56:21Z</time>
      </trkpt>
      <trkpt lat="43.20937" lon="5.4901">
        <ele>102</ele>
        <time>2016-10-16T16:56:31Z</time>
      </trkpt>
      <trkpt lat="43.20943" lon="5.48999">
        <ele>103</ele>
        <time>2016-10-16T16:56:41Z</time>
      </trkpt>
      <trkpt lat="43.20942" lon="5.48993">
        <ele>104</ele>
        <time>2016-10-16T16:56:45Z</time>
      </trkpt>
      <trkpt lat="43.20949" lon="5.48975">
        <ele>105</ele>
        <time>2016-10-16T16:57:00Z</time>
      </trkpt>
      <trkpt lat="43.20963" lon="5.48933">
        <ele>115</ele>
        <time>2016-10-16T16:57:36Z</time>
      </trkpt>
      <trkpt lat="43.20972" lon="5.48928">
        <ele>116</ele>
        <time>2016-10-16T16:57:45Z</time>
      </trkpt>
      <trkpt lat="43.20977" lon="5.4893">
        <ele>116</ele>
        <time>2016-10-16T16:57:52Z</time>
      </trkpt>
      <trkpt lat="43.20981" lon="5.48933">
        <ele>117</ele>
        <time>2016-10-16T16:57:56Z</time>
      </trkpt>
      <trkpt lat="43.20991" lon="5.48949">
        <ele>118</ele>
        <time>2016-10-16T16:58:12Z</time>
      </trkpt>
      <trkpt lat="43.20996" lon="5.48948">
        <ele>118</ele>
        <time>2016-10-16T16:58:16Z</time>
      </trkpt>
      <trkpt lat="43.21005" lon="5.48944">
        <ele>119</ele>
        <time>2016-10-16T16:58:24Z</time>
      </trkpt>
      <trkpt lat="43.2102" lon="5.4893">
        <ele>121</ele>
        <time>2016-10-16T16:58:40Z</time>
      </trkpt>
      <trkpt lat="43.2102" lon="5.48923">
        <ele>121</ele>
        <time>2016-10-16T16:58:45Z</time>
      </trkpt>
      <trkpt lat="43.21015" lon="5.4891">
        <ele>122</ele>
        <time>2016-10-16T16:58:54Z</time>
      </trkpt>
      <trkpt lat="43.21005" lon="5.48886">
        <ele>124</ele>
        <time>2016-10-16T16:59:15Z</time>
      </trkpt>
      <trkpt lat="43.21005" lon="5.48879">
        <ele>124</ele>
        <time>2016-10-16T16:59:20Z</time>
      </trkpt>
      <trkpt lat="43.21011" lon="5.48866">
        <ele>125</ele>
        <time>2016-10-16T16:59:30Z</time>
      </trkpt>
      <trkpt lat="43.21034" lon="5.48821">
        <ele>128</ele>
        <time>2016-10-16T17:00:01Z</time>
      </trkpt>
      <trkpt lat="43.21066" lon="5.4879">
        <ele>131</ele>
        <time>2016-10-16T17:00:36Z</time>
      </trkpt>
      <trkpt lat="43.21076" lon="5.48791">
        <ele>132</ele>
        <time>2016-10-16T17:00:45Z</time>
      </trkpt>
      <trkpt lat="43.21093" lon="5.48779">
        <ele>133</ele>
        <time>2016-10-16T17:01:02Z</time>
      </trkpt>
      <trkpt lat="43.21102" lon="5.48782">
        <ele>134</ele>
        <time>2016-10-16T17:01:11Z</time>
      </trkpt>
      <trkpt lat="43.21105" lon="5.48794">
        <ele>135</ele>
        <time>2016-10-16T17:01:21Z</time>
      </trkpt>
      <trkpt lat="43.21096" lon="5.48799">
        <ele>135</ele>
        <time>2016-10-16T17:01:31Z</time>
      </trkpt>
      <trkpt lat="43.21072" lon="5.48831">
        <ele>139</ele>
        <time>2016-10-16T17:02:03Z</time>
      </trkpt>
      <trkpt lat="43.21053" lon="5.48852">
        <ele>143</ele>
        <time>2016-10-16T17:02:28Z</time>
      </trkpt>
      <trkpt lat="43.21051" lon="5.48872">
        <ele>145</ele>
        <time>2016-10-16T17:02:44Z</time>
      </trkpt>
      <trkpt lat="43.21054" lon="5.48877">
        <ele>146</ele>
        <time>2016-10-16T17:02:50Z</time>
      </trkpt>
      <trkpt lat="43.21063" lon="5.48885">
        <ele>148</ele>
        <time>2016-10-16T17:03:02Z</time>
      </trkpt>
      <trkpt lat="43.21068" lon="5.48885">
        <ele>149</ele>
        <time>2016-10-16T17:03:08Z</time>
      </trkpt>
      <trkpt lat="43.21073" lon="5.48888">
        <ele>150</ele>
        <time>2016-10-16T17:03:15Z</time>
      </trkpt>
      <trkpt lat="43.21074" lon="5.48894">
        <ele>151</ele>
        <time>2016-10-16T17:03:20Z</time>
      </trkpt>
      <trkpt lat="43.21071" lon="5.48935">
        <ele>154</ele>
        <time>2016-10-16T17:03:47Z</time>
      </trkpt>
      <trkpt lat="43.21062" lon="5.48967">
        <ele>155</ele>
        <time>2016-10-16T17:04:07Z</time>
      </trkpt>
      <trkpt lat="43.21044" lon="5.49006">
        <ele>159</ele>
        <time>2016-10-16T17:04:42Z</time>
      </trkpt>
      <trkpt lat="43.21023" lon="5.49042">
        <ele>162</ele>
        <time>2016-10-16T17:05:13Z</time>
      </trkpt>
      <trkpt lat="43.21014" lon="5.49092">
        <ele>165</ele>
        <time>2016-10-16T17:05:45Z</time>
      </trkpt>
      <trkpt lat="43.21006" lon="5.49125">
        <ele>168</ele>
        <time>2016-10-16T17:06:08Z</time>
      </trkpt>
      <trkpt lat="43.21009" lon="5.4913">
        <ele>169</ele>
        <time>2016-10-16T17:06:13Z</time>
      </trkpt>
      <trkpt lat="43.21014" lon="5.4913">
        <ele>170</ele>
        <time>2016-10-16T17:06:17Z</time>
      </trkpt>
      <trkpt lat="43.21028" lon="5.49124">
        <ele>171</ele>
        <time>2016-10-16T17:06:31Z</time>
      </trkpt>
      <trkpt lat="43.21041" lon="5.49113">
        <ele>170</ele>
        <time>2016-10-16T17:06:44Z</time>
      </trkpt>
      <trkpt lat="43.21047" lon="5.49102">
        <ele>171</ele>
        <time>2016-10-16T17:06:52Z</time>
      </trkpt>
      <trkpt lat="43.21056" lon="5.49097">
        <ele>171</ele>
        <time>2016-10-16T17:07:01Z</time>
      </trkpt>
      <trkpt lat="43.21093" lon="5.49075">
        <ele>171</ele>
        <time>2016-10-16T17:07:33Z</time>
      </trkpt>
      <trkpt lat="43.2113" lon="5.49055">
        <ele>169</ele>
        <time>2016-10-16T17:08:05Z</time>
      </trkpt>
      <trkpt lat="43.21168" lon="5.49035">
        <ele>166</ele>
        <time>2016-10-16T17:08:37Z</time>
      </trkpt>
      <trkpt lat="43.21191" lon="5.49023">
        <ele>166</ele>
        <time>2016-10-16T17:08:56Z</time>
      </trkpt>
      <trkpt lat="43.21196" lon="5.49026">
        <ele>167</ele>
        <time>2016-10-16T17:09:01Z</time>
      </trkpt>
      <trkpt lat="43.212" lon="5.49031">
        <ele>167</ele>
        <time>2016-10-16T17:09:05Z</time>
      </trkpt>
      <trkpt lat="43.212" lon="5.49037">
        <ele>167</ele>
        <time>2016-10-16T17:09:09Z</time>
      </trkpt>
      <trkpt lat="43.21187" lon="5.49082">
        <ele>170</ele>
        <time>2016-10-16T17:09:40Z</time>
      </trkpt>
      <trkpt lat="43.21175" lon="5.49135">
        <ele>171</ele>
        <time>2016-10-16T17:10:12Z</time>
      </trkpt>
      <trkpt lat="43.21172" lon="5.49142">
        <ele>171</ele>
        <time>2016-10-16T17:10:17Z</time>
      </trkpt>
      <trkpt lat="43.21169" lon="5.49154">
        <ele>172</ele>
        <time>2016-10-16T17:10:25Z</time>
      </trkpt>
      <trkpt lat="43.21168" lon="5.49209">
        <ele>175</ele>
        <time>2016-10-16T17:10:59Z</time>
      </trkpt>
      <trkpt lat="43.21181" lon="5.49253">
        <ele>176</ele>
        <time>2016-10-16T17:11:29Z</time>
      </trkpt>
      <trkpt lat="43.21207" lon="5.49298">
        <ele>177</ele>
        <time>2016-10-16T17:12:02Z</time>
      </trkpt>
      <trkpt lat="43.21241" lon="5.49343">
        <ele>176</ele>
        <time>2016-10-16T17:12:39Z</time>
      </trkpt>
      <trkpt lat="43.21272" lon="5.49381">
        <ele>174</ele>
        <time>2016-10-16T17:13:11Z</time>
      </trkpt>
      <trkpt lat="43.21277" lon="5.49384">
        <ele>174</ele>
        <time>2016-10-16T17:13:15Z</time>
      </trkpt>
      <trkpt lat="43.21285" lon="5.49391">
        <ele>174</ele>
        <time>2016-10-16T17:13:23Z</time>
      </trkpt>
      <trkpt lat="43.21327" lon="5.49398">
        <ele>174</ele>
        <time>2016-10-16T17:13:57Z</time>
      </trkpt>
      <trkpt lat="43.21337" lon="5.49398">
        <ele>174</ele>
        <time>2016-10-16T17:14:05Z</time>
      </trkpt>
      <trkpt lat="43.21371" lon="5.49396">
        <ele>173</ele>
        <time>2016-10-16T17:14:34Z</time>
      </trkpt>
      <trkpt lat="43.21391" lon="5.49377">
        <ele>171</ele>
        <time>2016-10-16T17:14:57Z</time>
      </trkpt>
      <trkpt lat="43.2142" lon="5.49354">
        <ele>164</ele>
        <time>2016-10-16T17:15:35Z</time>
      </trkpt>
      <trkpt lat="43.21421" lon="5.49361">
        <ele>164</ele>
        <time>2016-10-16T17:15:40Z</time>
      </trkpt>
      <trkpt lat="43.21426" lon="5.49359">
        <ele>160</ele>
        <time>2016-10-16T17:15:52Z</time>
      </trkpt>
      <trkpt lat="43.21431" lon="5.49357">
        <ele>159</ele>
        <time>2016-10-16T17:15:57Z</time>
      </trkpt>
      <trkpt lat="43.21448" lon="5.4934">
        <ele>152</ele>
        <time>2016-10-16T17:16:28Z</time>
      </trkpt>
      <trkpt lat="43.2145" lon="5.49334">
        <ele>151</ele>
        <time>2016-10-16T17:16:33Z</time>
      </trkpt>
      <trkpt lat="43.21455" lon="5.49332">
        <ele>150</ele>
        <time>2016-10-16T17:16:43Z</time>
      </trkpt>
      <trkpt lat="43.21458" lon="5.49335">
        <ele>149</ele>
        <time>2016-10-16T17:16:50Z</time>
      </trkpt>
      <trkpt lat="43.21464" lon="5.49341">
        <ele>145</ele>
        <time>2016-10-16T17:17:05Z</time>
      </trkpt>
      <trkpt lat="43.21468" lon="5.49342">
        <ele>142</ele>
        <time>2016-10-16T17:17:15Z</time>
      </trkpt>
      <trkpt lat="43.21466" lon="5.49348">
        <ele>141</ele>
        <time>2016-10-16T17:17:20Z</time>
      </trkpt>
      <trkpt lat="43.2147" lon="5.49352">
        <ele>140</ele>
        <time>2016-10-16T17:17:26Z</time>
      </trkpt>
      <trkpt lat="43.2147" lon="5.49358">
        <ele>138</ele>
        <time>2016-10-16T17:17:33Z</time>
      </trkpt>
      <trkpt lat="43.21469" lon="5.49372">
        <ele>134</ele>
        <time>2016-10-16T17:17:50Z</time>
      </trkpt>
      <trkpt lat="43.21471" lon="5.49377">
        <ele>133</ele>
        <time>2016-10-16T17:17:59Z</time>
      </trkpt>
      <trkpt lat="43.21482" lon="5.49392">
        <ele>126</ele>
        <time>2016-10-16T17:18:38Z</time>
      </trkpt>
      <trkpt lat="43.21493" lon="5.49408">
        <ele>118</ele>
        <time>2016-10-16T17:19:12Z</time>
      </trkpt>
      <trkpt lat="43.2149" lon="5.49421">
        <ele>115</ele>
        <time>2016-10-16T17:19:20Z</time>
      </trkpt>
      <trkpt lat="43.21498" lon="5.49429">
        <ele>114</ele>
        <time>2016-10-16T17:19:32Z</time>
      </trkpt>
      <trkpt lat="43.21506" lon="5.49423">
        <ele>114</ele>
        <time>2016-10-16T17:19:41Z</time>
      </trkpt>
      <trkpt lat="43.21534" lon="5.49412">
        <ele>118</ele>
        <time>2016-10-16T17:20:12Z</time>
      </trkpt>
      <trkpt lat="43.21556" lon="5.49423">
        <ele>120</ele>
        <time>2016-10-16T17:20:32Z</time>
      </trkpt>
      <trkpt lat="43.21584" lon="5.4945">
        <ele>123</ele>
        <time>2016-10-16T17:21:02Z</time>
      </trkpt>
      <trkpt lat="43.21618" lon="5.49457">
        <ele>126</ele>
        <time>2016-10-16T17:21:32Z</time>
      </trkpt>
      <trkpt lat="43.21648" lon="5.49458">
        <ele>129</ele>
        <time>2016-10-16T17:21:59Z</time>
      </trkpt>
      <trkpt lat="43.21654" lon="5.49469">
        <ele>129</ele>
        <time>2016-10-16T17:22:07Z</time>
      </trkpt>
      <trkpt lat="43.21677" lon="5.49508">
        <ele>130</ele>
        <time>2016-10-16T17:22:38Z</time>
      </trkpt>
      <trkpt lat="43.21698" lon="5.49546">
        <ele>132</ele>
        <time>2016-10-16T17:23:08Z</time>
      </trkpt>
      <trkpt lat="43.21717" lon="5.49586">
        <ele>134</ele>
        <time>2016-10-16T17:23:39Z</time>
      </trkpt>
      <trkpt lat="43.21731" lon="5.49627">
        <ele>137</ele>
        <time>2016-10-16T17:24:09Z</time>
      </trkpt>
      <trkpt lat="43.21753" lon="5.49671">
        <ele>140</ele>
        <time>2016-10-16T17:24:43Z</time>
      </trkpt>
      <trkpt lat="43.21766" lon="5.49679">
        <ele>141</ele>
        <time>2016-10-16T17:24:57Z</time>
      </trkpt>
      <trkpt lat="43.21771" lon="5.49679">
        <ele>141</ele>
        <time>2016-10-16T17:25:01Z</time>
      </trkpt>
      <trkpt lat="43.21787" lon="5.49661">
        <ele>143</ele>
        <time>2016-10-16T17:25:21Z</time>
      </trkpt>
      <trkpt lat="43.21798" lon="5.49649">
        <ele>145</ele>
        <time>2016-10-16T17:25:36Z</time>
      </trkpt>
      <trkpt lat="43.2183" lon="5.49626">
        <ele>148</ele>
        <time>2016-10-16T17:26:08Z</time>
      </trkpt>
      <trkpt lat="43.21861" lon="5.49605">
        <ele>150</ele>
        <time>2016-10-16T17:26:39Z</time>
      </trkpt>
      <trkpt lat="43.21886" lon="5.49606">
        <ele>152</ele>
        <time>2016-10-16T17:27:02Z</time>
      </trkpt>
      <trkpt lat="43.21886" lon="5.49613">
        <ele>152</ele>
        <time>2016-10-16T17:27:06Z</time>
      </trkpt>
      <trkpt lat="43.21883" lon="5.49617">
        <ele>153</ele>
        <time>2016-10-16T17:27:11Z</time>
      </trkpt>
      <trkpt lat="43.2186" lon="5.49638">
        <ele>157</ele>
        <time>2016-10-16T17:27:42Z</time>
      </trkpt>
      <trkpt lat="43.21843" lon="5.49672">
        <ele>162</ele>
        <time>2016-10-16T17:28:13Z</time>
      </trkpt>
      <trkpt lat="43.21826" lon="5.49703">
        <ele>166</ele>
        <time>2016-10-16T17:28:45Z</time>
      </trkpt>
      <trkpt lat="43.21804" lon="5.49733">
        <ele>169</ele>
        <time>2016-10-16T17:29:16Z</time>
      </trkpt>
      <trkpt lat="43.21803" lon="5.49739">
        <ele>170</ele>
        <time>2016-10-16T17:29:21Z</time>
      </trkpt>
      <trkpt lat="43.21807" lon="5.49743">
        <ele>171</ele>
        <time>2016-10-16T17:29:27Z</time>
      </trkpt>
      <trkpt lat="43.21811" lon="5.49741">
        <ele>172</ele>
        <time>2016-10-16T17:29:31Z</time>
      </trkpt>
      <trkpt lat="43.2185" lon="5.49734">
        <ele>176</ele>
        <time>2016-10-16T17:30:32Z</time>
      </trkpt>
      <trkpt lat="43.21855" lon="5.49734">
        <ele>176</ele>
        <time>2016-10-16T17:30:37Z</time>
      </trkpt>
      <trkpt lat="43.2186" lon="5.49733">
        <ele>177</ele>
        <time>2016-10-16T17:30:44Z</time>
      </trkpt>
      <trkpt lat="43.21865" lon="5.49734">
        <ele>177</ele>
        <time>2016-10-16T17:30:49Z</time>
      </trkpt>
      <trkpt lat="43.21867" lon="5.49734">
        <ele>178</ele>
        <time>2016-10-16T17:31:00Z</time>
      </trkpt>
      <trkpt lat="43.21896" lon="5.49735">
        <ele>182</ele>
        <time>2016-10-16T17:31:32Z</time>
      </trkpt>
      <trkpt lat="43.21905" lon="5.49741">
        <ele>184</ele>
        <time>2016-10-16T17:31:40Z</time>
      </trkpt>
      <trkpt lat="43.21908" lon="5.49747">
        <ele>184</ele>
        <time>2016-10-16T17:31:45Z</time>
      </trkpt>
      <trkpt lat="43.21907" lon="5.49754">
        <ele>185</ele>
        <time>2016-10-16T17:31:50Z</time>
      </trkpt>
      <trkpt lat="43.21887" lon="5.49795">
        <ele>189</ele>
        <time>2016-10-16T17:32:23Z</time>
      </trkpt>
      <trkpt lat="43.21879" lon="5.49828">
        <ele>191</ele>
        <time>2016-10-16T17:32:46Z</time>
      </trkpt>
      <trkpt lat="43.21883" lon="5.49834">
        <ele>191</ele>
        <time>2016-10-16T17:32:52Z</time>
      </trkpt>
      <trkpt lat="43.2191" lon="5.49864">
        <ele>194</ele>
        <time>2016-10-16T17:33:23Z</time>
      </trkpt>
      <trkpt lat="43.2194" lon="5.49898">
        <ele>196</ele>
        <time>2016-10-16T17:33:55Z</time>
      </trkpt>
      <trkpt lat="43.21962" lon="5.49914">
        <ele>198</ele>
        <time>2016-10-16T17:34:15Z</time>
      </trkpt>
      <trkpt lat="43.22004" lon="5.49911">
        <ele>200</ele>
        <time>2016-10-16T17:34:46Z</time>
      </trkpt>
      <trkpt lat="43.22038" lon="5.49897">
        <ele>200</ele>
        <time>2016-10-16T17:35:17Z</time>
      </trkpt>
      <trkpt lat="43.22078" lon="5.49879">
        <ele>200</ele>
        <time>2016-10-16T17:35:50Z</time>
      </trkpt>
      <trkpt lat="43.22117" lon="5.49873">
        <ele>197</ele>
        <time>2016-10-16T17:36:22Z</time>
      </trkpt>
      <trkpt lat="43.22131" lon="5.49866">
        <ele>195</ele>
        <time>2016-10-16T17:36:33Z</time>
      </trkpt>
      <trkpt lat="43.22135" lon="5.4987">
        <ele>195</ele>
        <time>2016-10-16T17:36:37Z</time>
      </trkpt>
      <trkpt lat="43.22137" lon="5.49877">
        <ele>194</ele>
        <time>2016-10-16T17:36:41Z</time>
      </trkpt>
      <trkpt lat="43.22137" lon="5.49918">
        <ele>191</ele>
        <time>2016-10-16T17:37:06Z</time>
      </trkpt>
      <trkpt lat="43.22122" lon="5.49958">
        <ele>194</ele>
        <time>2016-10-16T17:37:40Z</time>
      </trkpt>
      <trkpt lat="43.22123" lon="5.50006">
        <ele>196</ele>
        <time>2016-10-16T17:38:14Z</time>
      </trkpt>
      <trkpt lat="43.22124" lon="5.50013">
        <ele>196</ele>
        <time>2016-10-16T17:38:19Z</time>
      </trkpt>
      <trkpt lat="43.22126" lon="5.50061">
        <ele>198</ele>
        <time>2016-10-16T17:38:49Z</time>
      </trkpt>
      <trkpt lat="43.22138" lon="5.50107">
        <ele>200</ele>
        <time>2016-10-16T17:39:18Z</time>
      </trkpt>
      <trkpt lat="43.22142" lon="5.5011">
        <ele>200</ele>
        <time>2016-10-16T17:39:22Z</time>
      </trkpt>
      <trkpt lat="43.22152" lon="5.5011">
        <ele>203</ele>
        <time>2016-10-16T17:39:34Z</time>
      </trkpt>
      <trkpt lat="43.22157" lon="5.50107">
        <ele>204</ele>
        <time>2016-10-16T17:39:40Z</time>
      </trkpt>
      <trkpt lat="43.22187" lon="5.50111">
        <ele>211</ele>
        <time>2016-10-16T17:40:15Z</time>
      </trkpt>
      <trkpt lat="43.22217" lon="5.50116">
        <ele>217</ele>
        <time>2016-10-16T17:40:47Z</time>
      </trkpt>
      <trkpt lat="43.2222" lon="5.50121">
        <ele>218</ele>
        <time>2016-10-16T17:40:52Z</time>
      </trkpt>
      <trkpt lat="43.22243" lon="5.50164">
        <ele>216</ele>
        <time>2016-10-16T17:41:25Z</time>
      </trkpt>
      <trkpt lat="43.22255" lon="5.50185">
        <ele>216</ele>
        <time>2016-10-16T17:41:39Z</time>
      </trkpt>
      <trkpt lat="43.22264" lon="5.5019">
        <ele>217</ele>
        <time>2016-10-16T17:41:47Z</time>
      </trkpt>
      <trkpt lat="43.22297" lon="5.5018">
        <ele>220</ele>
        <time>2016-10-16T17:42:18Z</time>
      </trkpt>
      <trkpt lat="43.22301" lon="5.50176">
        <ele>220</ele>
        <time>2016-10-16T17:42:23Z</time>
      </trkpt>
      <trkpt lat="43.22311" lon="5.50178">
        <ele>221</ele>
        <time>2016-10-16T17:42:33Z</time>
      </trkpt>
      <trkpt lat="43.22343" lon="5.50161">
        <ele>225</ele>
        <time>2016-10-16T17:43:07Z</time>
      </trkpt>
      <trkpt lat="43.22382" lon="5.50161">
        <ele>228</ele>
        <time>2016-10-16T17:43:42Z</time>
      </trkpt>
      <trkpt lat="43.22396" lon="5.50168">
        <ele>230</ele>
        <time>2016-10-16T17:43:56Z</time>
      </trkpt>
      <trkpt lat="43.224" lon="5.50172">
        <ele>230</ele>
        <time>2016-10-16T17:44:01Z</time>
      </trkpt>
      <trkpt lat="43.22404" lon="5.50185">
        <ele>231</ele>
        <time>2016-10-16T17:44:10Z</time>
      </trkpt>
      <trkpt lat="43.22398" lon="5.50234">
        <ele>233</ele>
        <time>2016-10-16T17:44:41Z</time>
      </trkpt>
      <trkpt lat="43.22402" lon="5.50256">
        <ele>234</ele>
        <time>2016-10-16T17:44:55Z</time>
      </trkpt>
      <trkpt lat="43.22417" lon="5.50274">
        <ele>235</ele>
        <time>2016-10-16T17:45:11Z</time>
      </trkpt>
      <trkpt lat="43.22432" lon="5.50281">
        <ele>236</ele>
        <time>2016-10-16T17:45:24Z</time>
      </trkpt>
      <trkpt lat="43.22436" lon="5.50279">
        <ele>237</ele>
        <time>2016-10-16T17:45:29Z</time>
      </trkpt>
      <trkpt lat="43.22472" lon="5.50276">
        <ele>239</ele>
        <time>2016-10-16T17:45:59Z</time>
      </trkpt>
      <trkpt lat="43.22512" lon="5.50278">
        <ele>241</ele>
        <time>2016-10-16T17:46:34Z</time>
      </trkpt>
      <trkpt lat="43.22552" lon="5.50275">
        <ele>243</ele>
        <time>2016-10-16T17:47:07Z</time>
      </trkpt>
      <trkpt lat="43.22587" lon="5.50275">
        <ele>245</ele>
        <time>2016-10-16T17:47:38Z</time>
      </trkpt>
      <trkpt lat="43.22593" lon="5.50276">
        <ele>246</ele>
        <time>2016-10-16T17:47:42Z</time>
      </trkpt>
      <trkpt lat="43.22628" lon="5.50281">
        <ele>248</ele>
        <time>2016-10-16T17:48:14Z</time>
      </trkpt>
      <trkpt lat="43.22648" lon="5.503">
        <ele>250</ele>
        <time>2016-10-16T17:48:34Z</time>
      </trkpt>
      <trkpt lat="43.22677" lon="5.50344">
        <ele>255</ele>
        <time>2016-10-16T17:49:08Z</time>
      </trkpt>
      <trkpt lat="43.227" lon="5.50383">
        <ele>257</ele>
        <time>2016-10-16T17:49:40Z</time>
      </trkpt>
      <trkpt lat="43.22707" lon="5.50392">
        <ele>257</ele>
        <time>2016-10-16T17:49:49Z</time>
      </trkpt>
      <trkpt lat="43.22718" lon="5.50392">
        <ele>258</ele>
        <time>2016-10-16T17:49:58Z</time>
      </trkpt>
      <trkpt lat="43.2274" lon="5.50377">
        <ele>259</ele>
        <time>2016-10-16T17:50:23Z</time>
      </trkpt>
      <trkpt lat="43.22741" lon="5.5038">
        <ele>260</ele>
        <time>2016-10-16T17:53:00Z</time>
      </trkpt>
    </trkseg>
  </trk>
</gpx>